<?xml version="1.0" encoding="UTF-8" standalone="no" ?>
<gpx xmlns="http://www.topografix.com/GPX/1/1" xmlns:xsi="http://www.w3.org/2001/XMLSchema-instance" xsi:schemaLocation="http://www.topografix.com/GPX/1/1 http://www.topografix.com/GPX/1/1/gpx.xsd" version="1.1" creator="VisuGPX - https://www.visugpx.com">
  <metadata>
    <name>Seg9_Maeva_Logibar-Ste-Engrâce</name>
  </metadata>
  <trk>
    <name><![CDATA[Seg9_Maeva_Logibar-Ste-Engrâce_1]]></name>
    <extensions>
      <line xmlns="http://www.topografix.com/GPX/gpx_style/0/2">
        <color>0000FF</color>
        <width>4</width>
      </line>
    </extensions>
    <trkseg>
      <trkpt lat="43.01822" lon="-0.9281">
        <ele>399</ele>
        <time>2021-07-11T07:00:00.000Z</time>
      </trkpt>
      <trkpt lat="43.01847" lon="-0.92831">
        <ele>405.7</ele>
        <time>2021-07-11T07:01:27.079Z</time>
      </trkpt>
      <trkpt lat="43.01856" lon="-0.92851">
        <ele>410.3</ele>
        <time>2021-07-11T07:02:18.043Z</time>
      </trkpt>
      <trkpt lat="43.01861" lon="-0.92853">
        <ele>412</ele>
        <time>2021-07-11T07:02:33.505Z</time>
      </trkpt>
      <trkpt lat="43.01859" lon="-0.92865">
        <ele>412.4</ele>
        <time>2021-07-11T07:02:45.185Z</time>
      </trkpt>
      <trkpt lat="43.01854" lon="-0.92879">
        <ele>412.2</ele>
        <time>2021-07-11T07:02:48.350Z</time>
      </trkpt>
      <trkpt lat="43.01853" lon="-0.92884">
        <ele>412.3</ele>
        <time>2021-07-11T07:02:52.196Z</time>
      </trkpt>
      <trkpt lat="43.0185" lon="-0.92881">
        <ele>411.2</ele>
        <time>2021-07-11T07:02:52.903Z</time>
      </trkpt>
      <trkpt lat="43.01797" lon="-0.92814">
        <ele>400.6</ele>
        <time>2021-07-11T07:03:06.642Z</time>
      </trkpt>
      <trkpt lat="43.01782" lon="-0.92785">
        <ele>398.2</ele>
        <time>2021-07-11T07:03:11.587Z</time>
      </trkpt>
      <trkpt lat="43.01768" lon="-0.92779">
        <ele>398.7</ele>
        <time>2021-07-11T07:03:28.000Z</time>
      </trkpt>
      <trkpt lat="43.01748" lon="-0.92788">
        <ele>401</ele>
        <time>2021-07-11T07:04:14.301Z</time>
      </trkpt>
      <trkpt lat="43.01739" lon="-0.92796">
        <ele>402.5</ele>
        <time>2021-07-11T07:04:46.160Z</time>
      </trkpt>
      <trkpt lat="43.01728" lon="-0.92812">
        <ele>404.3</ele>
        <time>2021-07-11T07:05:22.586Z</time>
      </trkpt>
      <trkpt lat="43.01712" lon="-0.92814">
        <ele>405.7</ele>
        <time>2021-07-11T07:05:51.156Z</time>
      </trkpt>
      <trkpt lat="43.01706" lon="-0.92814">
        <ele>406.2</ele>
        <time>2021-07-11T07:06:01.485Z</time>
      </trkpt>
      <trkpt lat="43.017" lon="-0.92838">
        <ele>408.1</ele>
        <time>2021-07-11T07:06:39.505Z</time>
      </trkpt>
      <trkpt lat="43.01695" lon="-0.92849">
        <ele>412.5</ele>
        <time>2021-07-11T07:07:07.613Z</time>
      </trkpt>
      <trkpt lat="43.01683" lon="-0.92849">
        <ele>413.2</ele>
        <time>2021-07-11T07:07:24.692Z</time>
      </trkpt>
      <trkpt lat="43.01651" lon="-0.92785">
        <ele>414.5</ele>
        <time>2021-07-11T07:08:19.914Z</time>
      </trkpt>
      <trkpt lat="43.0163" lon="-0.92755">
        <ele>414.3</ele>
        <time>2021-07-11T07:08:41.140Z</time>
      </trkpt>
      <trkpt lat="43.0161" lon="-0.92738">
        <ele>416.4</ele>
        <time>2021-07-11T07:09:23.767Z</time>
      </trkpt>
      <trkpt lat="43.01582" lon="-0.92718">
        <ele>417.6</ele>
        <time>2021-07-11T07:10:01.047Z</time>
      </trkpt>
      <trkpt lat="43.01528" lon="-0.92648">
        <ele>429.2</ele>
        <time>2021-07-11T07:13:41.877Z</time>
      </trkpt>
      <trkpt lat="43.01503" lon="-0.92626">
        <ele>430.9</ele>
        <time>2021-07-11T07:14:23.853Z</time>
      </trkpt>
      <trkpt lat="43.01491" lon="-0.9259">
        <ele>436.2</ele>
        <time>2021-07-11T07:15:49.716Z</time>
      </trkpt>
      <trkpt lat="43.01478" lon="-0.9259">
        <ele>436.6</ele>
        <time>2021-07-11T07:16:03.646Z</time>
      </trkpt>
      <trkpt lat="43.01448" lon="-0.92605">
        <ele>438.5</ele>
        <time>2021-07-11T07:16:49.472Z</time>
      </trkpt>
      <trkpt lat="43.014" lon="-0.92624">
        <ele>445</ele>
        <time>2021-07-11T07:19:10.926Z</time>
      </trkpt>
      <trkpt lat="43.01338" lon="-0.92631">
        <ele>445</ele>
        <time>2021-07-11T07:19:58.798Z</time>
      </trkpt>
      <trkpt lat="43.01286" lon="-0.92625">
        <ele>446.8</ele>
        <time>2021-07-11T07:20:57.502Z</time>
      </trkpt>
      <trkpt lat="43.01196" lon="-0.9262">
        <ele>457.8</ele>
        <time>2021-07-11T07:24:47.281Z</time>
      </trkpt>
      <trkpt lat="43.01181" lon="-0.92619">
        <ele>460.4</ele>
        <time>2021-07-11T07:25:31.856Z</time>
      </trkpt>
      <trkpt lat="43.01104" lon="-0.92627">
        <ele>464.6</ele>
        <time>2021-07-11T07:27:18.836Z</time>
      </trkpt>
      <trkpt lat="43.01077" lon="-0.92618">
        <ele>469.2</ele>
        <time>2021-07-11T07:28:41.321Z</time>
      </trkpt>
      <trkpt lat="43.01063" lon="-0.92611">
        <ele>471.7</ele>
        <time>2021-07-11T07:29:25.564Z</time>
      </trkpt>
      <trkpt lat="43.01053" lon="-0.92595">
        <ele>476.6</ele>
        <time>2021-07-11T07:30:11.246Z</time>
      </trkpt>
      <trkpt lat="43.01045" lon="-0.92587">
        <ele>478.6</ele>
        <time>2021-07-11T07:30:40.662Z</time>
      </trkpt>
      <trkpt lat="43.01029" lon="-0.9256">
        <ele>490.6</ele>
        <time>2021-07-11T07:31:56.089Z</time>
      </trkpt>
      <trkpt lat="43.01006" lon="-0.92541">
        <ele>496.7</ele>
        <time>2021-07-11T07:33:15.843Z</time>
      </trkpt>
      <trkpt lat="43.01001" lon="-0.92536">
        <ele>498.2</ele>
        <time>2021-07-11T07:33:34.228Z</time>
      </trkpt>
      <trkpt lat="43.00989" lon="-0.92531">
        <ele>499.9</ele>
        <time>2021-07-11T07:34:11.462Z</time>
      </trkpt>
      <trkpt lat="43.00983" lon="-0.92526">
        <ele>501.8</ele>
        <time>2021-07-11T07:34:32.316Z</time>
      </trkpt>
      <trkpt lat="43.00981" lon="-0.92518">
        <ele>504.8</ele>
        <time>2021-07-11T07:34:50.666Z</time>
      </trkpt>
      <trkpt lat="43.0098" lon="-0.92499">
        <ele>512.2</ele>
        <time>2021-07-11T07:35:32.010Z</time>
      </trkpt>
      <trkpt lat="43.00977" lon="-0.92487">
        <ele>519.4</ele>
        <time>2021-07-11T07:35:59.535Z</time>
      </trkpt>
      <trkpt lat="43.00965" lon="-0.92466">
        <ele>529.6</ele>
        <time>2021-07-11T07:36:57.379Z</time>
      </trkpt>
      <trkpt lat="43.00943" lon="-0.92457">
        <ele>528.8</ele>
        <time>2021-07-11T07:37:02.657Z</time>
      </trkpt>
      <trkpt lat="43.0091" lon="-0.92454">
        <ele>524</ele>
        <time>2021-07-11T07:37:08.953Z</time>
      </trkpt>
      <trkpt lat="43.009" lon="-0.9245">
        <ele>527.6</ele>
        <time>2021-07-11T07:37:39.878Z</time>
      </trkpt>
      <trkpt lat="43.00894" lon="-0.92443">
        <ele>531.7</ele>
        <time>2021-07-11T07:38:03.286Z</time>
      </trkpt>
      <trkpt lat="43.00893" lon="-0.92416">
        <ele>543.7</ele>
        <time>2021-07-11T07:39:01.963Z</time>
      </trkpt>
      <trkpt lat="43.00897" lon="-0.92374">
        <ele>563.8</ele>
        <time>2021-07-11T07:40:33.890Z</time>
      </trkpt>
      <trkpt lat="43.00894" lon="-0.92359">
        <ele>571.7</ele>
        <time>2021-07-11T07:41:07.642Z</time>
      </trkpt>
      <trkpt lat="43.00876" lon="-0.92338">
        <ele>584.2</ele>
        <time>2021-07-11T07:42:17.868Z</time>
      </trkpt>
      <trkpt lat="43.00868" lon="-0.92318">
        <ele>594.2</ele>
        <time>2021-07-11T07:43:07.346Z</time>
      </trkpt>
      <trkpt lat="43.00864" lon="-0.92319">
        <ele>594.1</ele>
        <time>2021-07-11T07:43:08.388Z</time>
      </trkpt>
      <trkpt lat="43.0085" lon="-0.92332">
        <ele>589.8</ele>
        <time>2021-07-11T07:43:11.609Z</time>
      </trkpt>
      <trkpt lat="43.00815" lon="-0.92411">
        <ele>567</ele>
        <time>2021-07-11T07:43:24.468Z</time>
      </trkpt>
      <trkpt lat="43.00797" lon="-0.92465">
        <ele>549.4</ele>
        <time>2021-07-11T07:43:32.729Z</time>
      </trkpt>
      <trkpt lat="43.00768" lon="-0.92488">
        <ele>552.5</ele>
        <time>2021-07-11T07:44:35.229Z</time>
      </trkpt>
      <trkpt lat="43.007" lon="-0.92492">
        <ele>581.1</ele>
        <time>2021-07-11T07:47:57.246Z</time>
      </trkpt>
      <trkpt lat="43.00663" lon="-0.92531">
        <ele>578.1</ele>
        <time>2021-07-11T07:48:05.547Z</time>
      </trkpt>
      <trkpt lat="43.0064" lon="-0.92543">
        <ele>572.4</ele>
        <time>2021-07-11T07:48:10.234Z</time>
      </trkpt>
      <trkpt lat="43.00628" lon="-0.92569">
        <ele>560.5</ele>
        <time>2021-07-11T07:48:14.514Z</time>
      </trkpt>
      <trkpt lat="43.00613" lon="-0.92571">
        <ele>559.8</ele>
        <time>2021-07-11T07:48:17.618Z</time>
      </trkpt>
      <trkpt lat="43.00598" lon="-0.92564">
        <ele>563.2</ele>
        <time>2021-07-11T07:49:04.660Z</time>
      </trkpt>
      <trkpt lat="43.00584" lon="-0.92552">
        <ele>568.5</ele>
        <time>2021-07-11T07:49:53.702Z</time>
      </trkpt>
      <trkpt lat="43.00575" lon="-0.92535">
        <ele>575.2</ele>
        <time>2021-07-11T07:50:39.256Z</time>
      </trkpt>
      <trkpt lat="43.00552" lon="-0.92511">
        <ele>577.9</ele>
        <time>2021-07-11T07:51:33.614Z</time>
      </trkpt>
      <trkpt lat="43.0055" lon="-0.92507">
        <ele>578.1</ele>
        <time>2021-07-11T07:51:38.592Z</time>
      </trkpt>
      <trkpt lat="43.00547" lon="-0.92494">
        <ele>578.3</ele>
        <time>2021-07-11T07:51:47.990Z</time>
      </trkpt>
      <trkpt lat="43.00549" lon="-0.92475">
        <ele>579</ele>
        <time>2021-07-11T07:52:06.862Z</time>
      </trkpt>
      <trkpt lat="43.00553" lon="-0.92439">
        <ele>581.3</ele>
        <time>2021-07-11T07:52:53.902Z</time>
      </trkpt>
      <trkpt lat="43.00554" lon="-0.92393">
        <ele>587.1</ele>
        <time>2021-07-11T07:54:33.791Z</time>
      </trkpt>
      <trkpt lat="43.00547" lon="-0.92343">
        <ele>592.9</ele>
        <time>2021-07-11T07:56:24.288Z</time>
      </trkpt>
      <trkpt lat="43.00542" lon="-0.92326">
        <ele>594.7</ele>
        <time>2021-07-11T07:57:04.060Z</time>
      </trkpt>
      <trkpt lat="43.00533" lon="-0.92309">
        <ele>595.9</ele>
        <time>2021-07-11T07:57:29.388Z</time>
      </trkpt>
      <trkpt lat="43.00533" lon="-0.92308">
        <ele>596.3</ele>
        <time>2021-07-11T07:57:31.559Z</time>
      </trkpt>
      <trkpt lat="43.0051" lon="-0.92268">
        <ele>598.3</ele>
        <time>2021-07-11T07:58:22.888Z</time>
      </trkpt>
      <trkpt lat="43.00478" lon="-0.92287">
        <ele>584.1</ele>
        <time>2021-07-11T07:58:29.529Z</time>
      </trkpt>
      <trkpt lat="43.00454" lon="-0.92324">
        <ele>582.5</ele>
        <time>2021-07-11T07:58:37.129Z</time>
      </trkpt>
      <trkpt lat="43.00433" lon="-0.92358">
        <ele>594</ele>
        <time>2021-07-11T08:00:13.728Z</time>
      </trkpt>
      <trkpt lat="43.00436" lon="-0.92444">
        <ele>603.6</ele>
        <time>2021-07-11T08:03:20.610Z</time>
      </trkpt>
      <trkpt lat="43.00398" lon="-0.92406">
        <ele>627.9</ele>
        <time>2021-07-11T08:05:40.339Z</time>
      </trkpt>
      <trkpt lat="43.00297" lon="-0.9229">
        <ele>673.5</ele>
        <time>2021-07-11T08:12:11.830Z</time>
      </trkpt>
      <trkpt lat="43.00294" lon="-0.9227">
        <ele>668.4</ele>
        <time>2021-07-11T08:12:14.672Z</time>
      </trkpt>
      <trkpt lat="43.00282" lon="-0.92269">
        <ele>676.3</ele>
        <time>2021-07-11T08:12:50.356Z</time>
      </trkpt>
      <trkpt lat="43.00287" lon="-0.92294">
        <ele>680.7</ele>
        <time>2021-07-11T08:13:46.614Z</time>
      </trkpt>
      <trkpt lat="43.00301" lon="-0.92329">
        <ele>684</ele>
        <time>2021-07-11T08:14:53.548Z</time>
      </trkpt>
      <trkpt lat="43.00309" lon="-0.92356">
        <ele>681.2</ele>
        <time>2021-07-11T08:14:57.603Z</time>
      </trkpt>
      <trkpt lat="43.00323" lon="-0.92379">
        <ele>674.5</ele>
        <time>2021-07-11T08:15:01.769Z</time>
      </trkpt>
      <trkpt lat="43.00328" lon="-0.92392">
        <ele>672.5</ele>
        <time>2021-07-11T08:15:03.814Z</time>
      </trkpt>
      <trkpt lat="43.00329" lon="-0.924">
        <ele>672.3</ele>
        <time>2021-07-11T08:15:05.194Z</time>
      </trkpt>
      <trkpt lat="43.00328" lon="-0.92409">
        <ele>673</ele>
        <time>2021-07-11T08:15:19.220Z</time>
      </trkpt>
      <trkpt lat="43.00323" lon="-0.92418">
        <ele>675</ele>
        <time>2021-07-11T08:15:43.753Z</time>
      </trkpt>
      <trkpt lat="43.00319" lon="-0.92421">
        <ele>675.8</ele>
        <time>2021-07-11T08:15:57.294Z</time>
      </trkpt>
      <trkpt lat="43.00312" lon="-0.92424">
        <ele>677.8</ele>
        <time>2021-07-11T08:16:19.067Z</time>
      </trkpt>
      <trkpt lat="43.00308" lon="-0.92422">
        <ele>680</ele>
        <time>2021-07-11T08:16:31.708Z</time>
      </trkpt>
      <trkpt lat="43.00308" lon="-0.92415">
        <ele>681.6</ele>
        <time>2021-07-11T08:16:46.903Z</time>
      </trkpt>
      <trkpt lat="43.00305" lon="-0.92412">
        <ele>682.9</ele>
        <time>2021-07-11T08:16:57.934Z</time>
      </trkpt>
      <trkpt lat="43.00293" lon="-0.92416">
        <ele>688</ele>
        <time>2021-07-11T08:17:34.594Z</time>
      </trkpt>
      <trkpt lat="43.00274" lon="-0.92426">
        <ele>692.7</ele>
        <time>2021-07-11T08:18:35.021Z</time>
      </trkpt>
      <trkpt lat="43.00267" lon="-0.92425">
        <ele>695.9</ele>
        <time>2021-07-11T08:18:55.911Z</time>
      </trkpt>
      <trkpt lat="43.00257" lon="-0.9242">
        <ele>701.8</ele>
        <time>2021-07-11T08:19:27.514Z</time>
      </trkpt>
      <trkpt lat="43.00262" lon="-0.92408">
        <ele>701.5</ele>
        <time>2021-07-11T08:19:29.961Z</time>
      </trkpt>
      <trkpt lat="43.00264" lon="-0.92386">
        <ele>702.1</ele>
        <time>2021-07-11T08:19:48.835Z</time>
      </trkpt>
      <trkpt lat="43.00252" lon="-0.92393">
        <ele>707.1</ele>
        <time>2021-07-11T08:20:27.558Z</time>
      </trkpt>
      <trkpt lat="43.00245" lon="-0.92393">
        <ele>709.5</ele>
        <time>2021-07-11T08:20:48.334Z</time>
      </trkpt>
      <trkpt lat="43.00233" lon="-0.92395">
        <ele>713</ele>
        <time>2021-07-11T08:21:24.215Z</time>
      </trkpt>
      <trkpt lat="43.00223" lon="-0.92401">
        <ele>715.5</ele>
        <time>2021-07-11T08:21:56.628Z</time>
      </trkpt>
      <trkpt lat="43.00217" lon="-0.92399">
        <ele>717.5</ele>
        <time>2021-07-11T08:22:14.958Z</time>
      </trkpt>
      <trkpt lat="43.00218" lon="-0.92394">
        <ele>717.7</ele>
        <time>2021-07-11T08:22:20.153Z</time>
      </trkpt>
      <trkpt lat="43.00229" lon="-0.92379">
        <ele>715.9</ele>
        <time>2021-07-11T08:22:23.110Z</time>
      </trkpt>
      <trkpt lat="43.00231" lon="-0.92366">
        <ele>716.6</ele>
        <time>2021-07-11T08:22:38.390Z</time>
      </trkpt>
      <trkpt lat="43.00222" lon="-0.92362">
        <ele>720</ele>
        <time>2021-07-11T08:23:06.478Z</time>
      </trkpt>
      <trkpt lat="43.00208" lon="-0.92367">
        <ele>724.1</ele>
        <time>2021-07-11T08:23:49.426Z</time>
      </trkpt>
      <trkpt lat="43.0019" lon="-0.92378">
        <ele>728.5</ele>
        <time>2021-07-11T08:24:47.944Z</time>
      </trkpt>
      <trkpt lat="43.00156" lon="-0.92377">
        <ele>738.6</ele>
        <time>2021-07-11T08:26:28.883Z</time>
      </trkpt>
      <trkpt lat="43.00138" lon="-0.9237">
        <ele>743.9</ele>
        <time>2021-07-11T08:27:24.428Z</time>
      </trkpt>
      <trkpt lat="43.00126" lon="-0.92356">
        <ele>749.4</ele>
        <time>2021-07-11T08:28:11.248Z</time>
      </trkpt>
      <trkpt lat="43.00139" lon="-0.92346">
        <ele>748</ele>
        <time>2021-07-11T08:28:14.087Z</time>
      </trkpt>
      <trkpt lat="43.00145" lon="-0.9234">
        <ele>747.6</ele>
        <time>2021-07-11T08:28:15.523Z</time>
      </trkpt>
      <trkpt lat="43.00149" lon="-0.9233">
        <ele>747.5</ele>
        <time>2021-07-11T08:28:18.006Z</time>
      </trkpt>
      <trkpt lat="43.00148" lon="-0.92317">
        <ele>747</ele>
        <time>2021-07-11T08:28:19.877Z</time>
      </trkpt>
      <trkpt lat="43.00118" lon="-0.92209">
        <ele>752.4</ele>
        <time>2021-07-11T08:30:24.963Z</time>
      </trkpt>
      <trkpt lat="43.00115" lon="-0.92191">
        <ele>752</ele>
        <time>2021-07-11T08:30:28.237Z</time>
      </trkpt>
      <trkpt lat="43.00109" lon="-0.92173">
        <ele>753.6</ele>
        <time>2021-07-11T08:31:00.520Z</time>
      </trkpt>
      <trkpt lat="43.00107" lon="-0.92163">
        <ele>753.6</ele>
        <time>2021-07-11T08:31:06.354Z</time>
      </trkpt>
      <trkpt lat="43.00108" lon="-0.9215">
        <ele>750.7</ele>
        <time>2021-07-11T08:31:08.174Z</time>
      </trkpt>
      <trkpt lat="43.00104" lon="-0.92123">
        <ele>748.6</ele>
        <time>2021-07-11T08:31:12.010Z</time>
      </trkpt>
      <trkpt lat="43.00098" lon="-0.92107">
        <ele>749.7</ele>
        <time>2021-07-11T08:31:34.708Z</time>
      </trkpt>
      <trkpt lat="43.00086" lon="-0.92083">
        <ele>753.2</ele>
        <time>2021-07-11T08:32:37.816Z</time>
      </trkpt>
      <trkpt lat="43.00056" lon="-0.92024">
        <ele>752.4</ele>
        <time>2021-07-11T08:32:52.839Z</time>
      </trkpt>
      <trkpt lat="43.0003" lon="-0.9198">
        <ele>753.8</ele>
        <time>2021-07-11T08:33:38.975Z</time>
      </trkpt>
      <trkpt lat="43.00014" lon="-0.91964">
        <ele>758.4</ele>
        <time>2021-07-11T08:34:37.810Z</time>
      </trkpt>
      <trkpt lat="42.99999" lon="-0.91944">
        <ele>761.7</ele>
        <time>2021-07-11T08:35:39.995Z</time>
      </trkpt>
      <trkpt lat="42.9997" lon="-0.91897">
        <ele>767.3</ele>
        <time>2021-07-11T08:37:38.243Z</time>
      </trkpt>
      <trkpt lat="42.99955" lon="-0.91861">
        <ele>770.3</ele>
        <time>2021-07-11T08:38:38.297Z</time>
      </trkpt>
      <trkpt lat="42.99951" lon="-0.91786">
        <ele>763</ele>
        <time>2021-07-11T08:38:48.767Z</time>
      </trkpt>
      <trkpt lat="42.99954" lon="-0.91748">
        <ele>756.7</ele>
        <time>2021-07-11T08:38:54.089Z</time>
      </trkpt>
      <trkpt lat="42.99951" lon="-0.91732">
        <ele>757.8</ele>
        <time>2021-07-11T08:39:16.325Z</time>
      </trkpt>
      <trkpt lat="42.99943" lon="-0.91715">
        <ele>761.9</ele>
        <time>2021-07-11T08:40:00.207Z</time>
      </trkpt>
      <trkpt lat="42.99933" lon="-0.91702">
        <ele>767.4</ele>
        <time>2021-07-11T08:40:41.162Z</time>
      </trkpt>
      <trkpt lat="42.99912" lon="-0.91669">
        <ele>777.1</ele>
        <time>2021-07-11T08:42:16.118Z</time>
      </trkpt>
      <trkpt lat="42.99906" lon="-0.91654">
        <ele>778.3</ele>
        <time>2021-07-11T08:42:40.194Z</time>
      </trkpt>
      <trkpt lat="42.99904" lon="-0.91641">
        <ele>778.1</ele>
        <time>2021-07-11T08:42:42.798Z</time>
      </trkpt>
      <trkpt lat="42.99905" lon="-0.91629">
        <ele>776.7</ele>
        <time>2021-07-11T08:42:44.479Z</time>
      </trkpt>
      <trkpt lat="42.9991" lon="-0.91614">
        <ele>773.4</ele>
        <time>2021-07-11T08:42:46.775Z</time>
      </trkpt>
      <trkpt lat="42.99909" lon="-0.91601">
        <ele>772.8</ele>
        <time>2021-07-11T08:42:48.493Z</time>
      </trkpt>
      <trkpt lat="42.99898" lon="-0.91575">
        <ele>774.6</ele>
        <time>2021-07-11T08:43:25.873Z</time>
      </trkpt>
      <trkpt lat="42.99894" lon="-0.9155">
        <ele>772</ele>
        <time>2021-07-11T08:43:29.436Z</time>
      </trkpt>
      <trkpt lat="42.9989" lon="-0.91538">
        <ele>771.8</ele>
        <time>2021-07-11T08:43:32.017Z</time>
      </trkpt>
      <trkpt lat="42.99881" lon="-0.91524">
        <ele>774</ele>
        <time>2021-07-11T08:44:12.479Z</time>
      </trkpt>
      <trkpt lat="42.99858" lon="-0.91497">
        <ele>781.9</ele>
        <time>2021-07-11T08:45:42.454Z</time>
      </trkpt>
      <trkpt lat="42.99846" lon="-0.91477">
        <ele>783.3</ele>
        <time>2021-07-11T08:46:12.660Z</time>
      </trkpt>
      <trkpt lat="42.99835" lon="-0.91465">
        <ele>786.6</ele>
        <time>2021-07-11T08:46:54.428Z</time>
      </trkpt>
      <trkpt lat="42.99828" lon="-0.91453">
        <ele>787.2</ele>
        <time>2021-07-11T08:47:09.882Z</time>
      </trkpt>
      <trkpt lat="42.99821" lon="-0.91432">
        <ele>785.3</ele>
        <time>2021-07-11T08:47:13.095Z</time>
      </trkpt>
      <trkpt lat="42.99812" lon="-0.91415">
        <ele>785.2</ele>
        <time>2021-07-11T08:47:23.834Z</time>
      </trkpt>
      <trkpt lat="42.99803" lon="-0.9139">
        <ele>782</ele>
        <time>2021-07-11T08:47:27.714Z</time>
      </trkpt>
      <trkpt lat="42.99788" lon="-0.91368">
        <ele>782</ele>
        <time>2021-07-11T08:47:44.641Z</time>
      </trkpt>
      <trkpt lat="42.99777" lon="-0.91355">
        <ele>782.7</ele>
        <time>2021-07-11T08:48:03.970Z</time>
      </trkpt>
      <trkpt lat="42.99754" lon="-0.91336">
        <ele>786.2</ele>
        <time>2021-07-11T08:49:20.217Z</time>
      </trkpt>
      <trkpt lat="42.99714" lon="-0.9132">
        <ele>789.6</ele>
        <time>2021-07-11T08:50:30.924Z</time>
      </trkpt>
      <trkpt lat="42.99696" lon="-0.91304">
        <ele>787.2</ele>
        <time>2021-07-11T08:50:35.012Z</time>
      </trkpt>
      <trkpt lat="42.99684" lon="-0.91293">
        <ele>785.7</ele>
        <time>2021-07-11T08:50:37.762Z</time>
      </trkpt>
      <trkpt lat="42.9967" lon="-0.91287">
        <ele>786.8</ele>
        <time>2021-07-11T08:51:01.365Z</time>
      </trkpt>
      <trkpt lat="42.99656" lon="-0.91288">
        <ele>787.8</ele>
        <time>2021-07-11T08:51:23.293Z</time>
      </trkpt>
      <trkpt lat="42.99634" lon="-0.91299">
        <ele>791.4</ele>
        <time>2021-07-11T08:52:32.821Z</time>
      </trkpt>
      <trkpt lat="42.99621" lon="-0.91301">
        <ele>791.7</ele>
        <time>2021-07-11T08:52:45.564Z</time>
      </trkpt>
      <trkpt lat="42.99604" lon="-0.91308">
        <ele>793.6</ele>
        <time>2021-07-11T08:53:23.700Z</time>
      </trkpt>
      <trkpt lat="42.99575" lon="-0.91312">
        <ele>794.7</ele>
        <time>2021-07-11T08:53:57.978Z</time>
      </trkpt>
      <trkpt lat="42.99538" lon="-0.91336">
        <ele>804.5</ele>
        <time>2021-07-11T08:55:59.530Z</time>
      </trkpt>
      <trkpt lat="42.9953" lon="-0.91339">
        <ele>806.4</ele>
        <time>2021-07-11T08:56:24.152Z</time>
      </trkpt>
      <trkpt lat="42.99503" lon="-0.91345">
        <ele>810.5</ele>
        <time>2021-07-11T08:57:45.342Z</time>
      </trkpt>
      <trkpt lat="42.99487" lon="-0.91344">
        <ele>812.4</ele>
        <time>2021-07-11T08:58:24.501Z</time>
      </trkpt>
      <trkpt lat="42.99475" lon="-0.91341">
        <ele>813.1</ele>
        <time>2021-07-11T08:58:41.749Z</time>
      </trkpt>
      <trkpt lat="42.9943" lon="-0.91323">
        <ele>813.4</ele>
        <time>2021-07-11T08:59:20.074Z</time>
      </trkpt>
      <trkpt lat="42.99398" lon="-0.913">
        <ele>807.5</ele>
        <time>2021-07-11T08:59:26.957Z</time>
      </trkpt>
      <trkpt lat="42.99384" lon="-0.91297">
        <ele>807.9</ele>
        <time>2021-07-11T08:59:41.664Z</time>
      </trkpt>
      <trkpt lat="42.99367" lon="-0.91299">
        <ele>810.9</ele>
        <time>2021-07-11T09:00:32.308Z</time>
      </trkpt>
      <trkpt lat="42.99321" lon="-0.91291">
        <ele>814.3</ele>
        <time>2021-07-11T09:01:45.955Z</time>
      </trkpt>
      <trkpt lat="42.9931" lon="-0.91291">
        <ele>816.5</ele>
        <time>2021-07-11T09:02:18.604Z</time>
      </trkpt>
      <trkpt lat="42.9929" lon="-0.91299">
        <ele>823.4</ele>
        <time>2021-07-11T09:03:20.455Z</time>
      </trkpt>
      <trkpt lat="42.99283" lon="-0.91299">
        <ele>824.7</ele>
        <time>2021-07-11T09:03:41.231Z</time>
      </trkpt>
      <trkpt lat="42.99276" lon="-0.91295">
        <ele>824.8</ele>
        <time>2021-07-11T09:03:47.871Z</time>
      </trkpt>
      <trkpt lat="42.9925" lon="-0.91261">
        <ele>820.2</ele>
        <time>2021-07-11T09:03:54.720Z</time>
      </trkpt>
      <trkpt lat="42.99237" lon="-0.9125">
        <ele>822.3</ele>
        <time>2021-07-11T09:04:40.098Z</time>
      </trkpt>
      <trkpt lat="42.99228" lon="-0.91237">
        <ele>821.6</ele>
        <time>2021-07-11T09:04:42.635Z</time>
      </trkpt>
      <trkpt lat="42.99196" lon="-0.91185">
        <ele>817.7</ele>
        <time>2021-07-11T09:04:52.098Z</time>
      </trkpt>
      <trkpt lat="42.99187" lon="-0.91178">
        <ele>819.2</ele>
        <time>2021-07-11T09:05:22.831Z</time>
      </trkpt>
      <trkpt lat="42.99174" lon="-0.91171">
        <ele>822.3</ele>
        <time>2021-07-11T09:06:04.301Z</time>
      </trkpt>
      <trkpt lat="42.99152" lon="-0.91163">
        <ele>829.1</ele>
        <time>2021-07-11T09:07:11.869Z</time>
      </trkpt>
      <trkpt lat="42.99138" lon="-0.91161">
        <ele>834.2</ele>
        <time>2021-07-11T09:07:53.649Z</time>
      </trkpt>
      <trkpt lat="42.99129" lon="-0.91156">
        <ele>837.2</ele>
        <time>2021-07-11T09:08:22.483Z</time>
      </trkpt>
      <trkpt lat="42.99123" lon="-0.9115">
        <ele>838.9</ele>
        <time>2021-07-11T09:08:44.548Z</time>
      </trkpt>
      <trkpt lat="42.99119" lon="-0.91142">
        <ele>839.7</ele>
        <time>2021-07-11T09:09:00.765Z</time>
      </trkpt>
      <trkpt lat="42.99118" lon="-0.91135">
        <ele>839.4</ele>
        <time>2021-07-11T09:09:01.742Z</time>
      </trkpt>
      <trkpt lat="42.99123" lon="-0.91098">
        <ele>833.2</ele>
        <time>2021-07-11T09:09:06.982Z</time>
      </trkpt>
      <trkpt lat="42.99124" lon="-0.9108">
        <ele>830.6</ele>
        <time>2021-07-11T09:09:09.495Z</time>
      </trkpt>
      <trkpt lat="42.99123" lon="-0.91064">
        <ele>829.2</ele>
        <time>2021-07-11T09:09:11.731Z</time>
      </trkpt>
      <trkpt lat="42.99115" lon="-0.91034">
        <ele>830</ele>
        <time>2021-07-11T09:09:37.921Z</time>
      </trkpt>
      <trkpt lat="42.99107" lon="-0.91018">
        <ele>832.6</ele>
        <time>2021-07-11T09:10:19.998Z</time>
      </trkpt>
      <trkpt lat="42.99093" lon="-0.90996">
        <ele>837.5</ele>
        <time>2021-07-11T09:11:23.307Z</time>
      </trkpt>
      <trkpt lat="42.99088" lon="-0.90982">
        <ele>836.3</ele>
        <time>2021-07-11T09:11:25.476Z</time>
      </trkpt>
      <trkpt lat="42.99077" lon="-0.90964">
        <ele>836.3</ele>
        <time>2021-07-11T09:11:38.678Z</time>
      </trkpt>
      <trkpt lat="42.99071" lon="-0.9093">
        <ele>828.8</ele>
        <time>2021-07-11T09:11:43.548Z</time>
      </trkpt>
      <trkpt lat="42.99044" lon="-0.90904">
        <ele>835.4</ele>
        <time>2021-07-11T09:13:21.572Z</time>
      </trkpt>
      <trkpt lat="42.9902" lon="-0.90892">
        <ele>842.8</ele>
        <time>2021-07-11T09:14:37.421Z</time>
      </trkpt>
      <trkpt lat="42.99013" lon="-0.90884">
        <ele>843.5</ele>
        <time>2021-07-11T09:14:52.303Z</time>
      </trkpt>
      <trkpt lat="42.98992" lon="-0.90829">
        <ele>836.9</ele>
        <time>2021-07-11T09:15:00.942Z</time>
      </trkpt>
      <trkpt lat="42.9897" lon="-0.90805">
        <ele>845.6</ele>
        <time>2021-07-11T09:16:24.482Z</time>
      </trkpt>
      <trkpt lat="42.98953" lon="-0.90796">
        <ele>852</ele>
        <time>2021-07-11T09:17:18.591Z</time>
      </trkpt>
      <trkpt lat="42.98938" lon="-0.90784">
        <ele>856.5</ele>
        <time>2021-07-11T09:18:10.175Z</time>
      </trkpt>
      <trkpt lat="42.98912" lon="-0.90748">
        <ele>860.9</ele>
        <time>2021-07-11T09:19:40.945Z</time>
      </trkpt>
      <trkpt lat="42.9891" lon="-0.90738">
        <ele>860.5</ele>
        <time>2021-07-11T09:19:42.423Z</time>
      </trkpt>
      <trkpt lat="42.98913" lon="-0.90729">
        <ele>856.9</ele>
        <time>2021-07-11T09:19:43.800Z</time>
      </trkpt>
      <trkpt lat="42.98922" lon="-0.90716">
        <ele>851.2</ele>
        <time>2021-07-11T09:19:46.293Z</time>
      </trkpt>
      <trkpt lat="42.98926" lon="-0.90704">
        <ele>848.9</ele>
        <time>2021-07-11T09:19:48.129Z</time>
      </trkpt>
      <trkpt lat="42.98924" lon="-0.90687">
        <ele>846.8</ele>
        <time>2021-07-11T09:19:50.527Z</time>
      </trkpt>
      <trkpt lat="42.98919" lon="-0.90674">
        <ele>845.1</ele>
        <time>2021-07-11T09:19:52.572Z</time>
      </trkpt>
      <trkpt lat="42.98911" lon="-0.90661">
        <ele>847.2</ele>
        <time>2021-07-11T09:20:29.456Z</time>
      </trkpt>
      <trkpt lat="42.98894" lon="-0.90636">
        <ele>854.7</ele>
        <time>2021-07-11T09:21:43.565Z</time>
      </trkpt>
      <trkpt lat="42.98882" lon="-0.90623">
        <ele>858.2</ele>
        <time>2021-07-11T09:22:29.009Z</time>
      </trkpt>
      <trkpt lat="42.98857" lon="-0.90604">
        <ele>862.6</ele>
        <time>2021-07-11T09:23:53.907Z</time>
      </trkpt>
      <trkpt lat="42.9885" lon="-0.90593">
        <ele>861.7</ele>
        <time>2021-07-11T09:23:55.938Z</time>
      </trkpt>
      <trkpt lat="42.98838" lon="-0.90566">
        <ele>860.3</ele>
        <time>2021-07-11T09:24:00.163Z</time>
      </trkpt>
      <trkpt lat="42.98823" lon="-0.90544">
        <ele>863.4</ele>
        <time>2021-07-11T09:25:05.460Z</time>
      </trkpt>
      <trkpt lat="42.98825" lon="-0.90538">
        <ele>862</ele>
        <time>2021-07-11T09:25:06.378Z</time>
      </trkpt>
      <trkpt lat="42.98834" lon="-0.90527">
        <ele>858</ele>
        <time>2021-07-11T09:25:08.676Z</time>
      </trkpt>
      <trkpt lat="42.98842" lon="-0.90531">
        <ele>858.4</ele>
        <time>2021-07-11T09:25:19.914Z</time>
      </trkpt>
      <trkpt lat="42.98859" lon="-0.90534">
        <ele>858.8</ele>
        <time>2021-07-11T09:25:36.690Z</time>
      </trkpt>
      <trkpt lat="42.9886" lon="-0.90534">
        <ele>858.8</ele>
        <time>2021-07-11T09:25:37.459Z</time>
      </trkpt>
      <trkpt lat="42.98876" lon="-0.90544">
        <ele>858.3</ele>
        <time>2021-07-11T09:25:41.780Z</time>
      </trkpt>
      <trkpt lat="42.98882" lon="-0.90552">
        <ele>857.4</ele>
        <time>2021-07-11T09:25:43.376Z</time>
      </trkpt>
      <trkpt lat="42.98899" lon="-0.90563">
        <ele>854.9</ele>
        <time>2021-07-11T09:25:46.956Z</time>
      </trkpt>
      <trkpt lat="42.98904" lon="-0.90569">
        <ele>853.4</ele>
        <time>2021-07-11T09:25:48.223Z</time>
      </trkpt>
      <trkpt lat="42.98915" lon="-0.90579">
        <ele>850.2</ele>
        <time>2021-07-11T09:25:50.737Z</time>
      </trkpt>
      <trkpt lat="42.98922" lon="-0.90587">
        <ele>850.1</ele>
        <time>2021-07-11T09:25:53.491Z</time>
      </trkpt>
      <trkpt lat="42.98925" lon="-0.90597">
        <ele>850</ele>
        <time>2021-07-11T09:25:55.826Z</time>
      </trkpt>
      <trkpt lat="42.98928" lon="-0.906">
        <ele>850.4</ele>
        <time>2021-07-11T09:26:03.860Z</time>
      </trkpt>
      <trkpt lat="42.98948" lon="-0.90601">
        <ele>854.4</ele>
        <time>2021-07-11T09:27:03.262Z</time>
      </trkpt>
      <trkpt lat="42.98957" lon="-0.90612">
        <ele>854.1</ele>
        <time>2021-07-11T09:27:06.344Z</time>
      </trkpt>
      <trkpt lat="42.98984" lon="-0.90629">
        <ele>853.9</ele>
        <time>2021-07-11T09:27:27.081Z</time>
      </trkpt>
      <trkpt lat="42.98988" lon="-0.9063">
        <ele>854</ele>
        <time>2021-07-11T09:27:31.120Z</time>
      </trkpt>
      <trkpt lat="42.98998" lon="-0.90628">
        <ele>855.8</ele>
        <time>2021-07-11T09:28:01.117Z</time>
      </trkpt>
      <trkpt lat="42.99017" lon="-0.90645">
        <ele>855.4</ele>
        <time>2021-07-11T09:28:07.421Z</time>
      </trkpt>
      <trkpt lat="42.9902" lon="-0.90651">
        <ele>853.9</ele>
        <time>2021-07-11T09:28:08.433Z</time>
      </trkpt>
      <trkpt lat="42.99025" lon="-0.90655">
        <ele>853.6</ele>
        <time>2021-07-11T09:28:09.571Z</time>
      </trkpt>
      <trkpt lat="42.99032" lon="-0.90657">
        <ele>854.6</ele>
        <time>2021-07-11T09:28:30.797Z</time>
      </trkpt>
      <trkpt lat="42.9904" lon="-0.90666">
        <ele>852.4</ele>
        <time>2021-07-11T09:28:32.769Z</time>
      </trkpt>
      <trkpt lat="42.9905" lon="-0.9067">
        <ele>853.5</ele>
        <time>2021-07-11T09:28:54.817Z</time>
      </trkpt>
      <trkpt lat="42.99067" lon="-0.90683">
        <ele>853.2</ele>
        <time>2021-07-11T09:29:00.373Z</time>
      </trkpt>
      <trkpt lat="42.99088" lon="-0.90704">
        <ele>850.6</ele>
        <time>2021-07-11T09:29:05.326Z</time>
      </trkpt>
      <trkpt lat="42.99097" lon="-0.90709">
        <ele>851.8</ele>
        <time>2021-07-11T09:29:30.547Z</time>
      </trkpt>
      <trkpt lat="42.99108" lon="-0.90723">
        <ele>849.9</ele>
        <time>2021-07-11T09:29:33.408Z</time>
      </trkpt>
      <trkpt lat="42.99121" lon="-0.90737">
        <ele>847.7</ele>
        <time>2021-07-11T09:29:36.559Z</time>
      </trkpt>
      <trkpt lat="42.99125" lon="-0.90745">
        <ele>845.2</ele>
        <time>2021-07-11T09:29:37.908Z</time>
      </trkpt>
      <trkpt lat="42.99137" lon="-0.90757">
        <ele>843.5</ele>
        <time>2021-07-11T09:29:40.739Z</time>
      </trkpt>
      <trkpt lat="42.99165" lon="-0.90772">
        <ele>843.5</ele>
        <time>2021-07-11T09:30:03.880Z</time>
      </trkpt>
      <trkpt lat="42.99173" lon="-0.90774">
        <ele>845.8</ele>
        <time>2021-07-11T09:30:28.018Z</time>
      </trkpt>
      <trkpt lat="42.99186" lon="-0.90783">
        <ele>847.7</ele>
        <time>2021-07-11T09:31:09.446Z</time>
      </trkpt>
      <trkpt lat="42.99191" lon="-0.90784">
        <ele>849.4</ele>
        <time>2021-07-11T09:31:24.444Z</time>
      </trkpt>
      <trkpt lat="42.99199" lon="-0.90792">
        <ele>849.3</ele>
        <time>2021-07-11T09:31:27.471Z</time>
      </trkpt>
      <trkpt lat="42.99217" lon="-0.90807">
        <ele>849.9</ele>
        <time>2021-07-11T09:31:49.413Z</time>
      </trkpt>
      <trkpt lat="42.99252" lon="-0.90844">
        <ele>846.4</ele>
        <time>2021-07-11T09:31:57.835Z</time>
      </trkpt>
      <trkpt lat="42.99264" lon="-0.90853">
        <ele>846.9</ele>
        <time>2021-07-11T09:32:13.664Z</time>
      </trkpt>
      <trkpt lat="42.99279" lon="-0.90867">
        <ele>846.2</ele>
        <time>2021-07-11T09:32:17.689Z</time>
      </trkpt>
      <trkpt lat="42.99329" lon="-0.90894">
        <ele>850.5</ele>
        <time>2021-07-11T09:33:47.711Z</time>
      </trkpt>
      <trkpt lat="42.99343" lon="-0.90893">
        <ele>852.9</ele>
        <time>2021-07-11T09:34:29.321Z</time>
      </trkpt>
      <trkpt lat="42.99353" lon="-0.90895">
        <ele>852.4</ele>
        <time>2021-07-11T09:34:31.347Z</time>
      </trkpt>
      <trkpt lat="42.99372" lon="-0.90888">
        <ele>856.6</ele>
        <time>2021-07-11T09:35:29.753Z</time>
      </trkpt>
      <trkpt lat="42.99394" lon="-0.90885">
        <ele>858.9</ele>
        <time>2021-07-11T09:36:15.803Z</time>
      </trkpt>
      <trkpt lat="42.99423" lon="-0.90893">
        <ele>856</ele>
        <time>2021-07-11T09:36:21.435Z</time>
      </trkpt>
      <trkpt lat="42.99458" lon="-0.90898">
        <ele>850</ele>
        <time>2021-07-11T09:36:28.135Z</time>
      </trkpt>
      <trkpt lat="42.99486" lon="-0.90874">
        <ele>856.5</ele>
        <time>2021-07-11T09:38:06.223Z</time>
      </trkpt>
      <trkpt lat="42.99518" lon="-0.90839">
        <ele>863.6</ele>
        <time>2021-07-11T09:40:07.855Z</time>
      </trkpt>
      <trkpt lat="42.99544" lon="-0.90819">
        <ele>869.1</ele>
        <time>2021-07-11T09:41:36.401Z</time>
      </trkpt>
      <trkpt lat="42.99575" lon="-0.90807">
        <ele>870.2</ele>
        <time>2021-07-11T09:42:12.475Z</time>
      </trkpt>
      <trkpt lat="42.99631" lon="-0.90804">
        <ele>856.6</ele>
        <time>2021-07-11T09:42:23.144Z</time>
      </trkpt>
      <trkpt lat="42.99674" lon="-0.90781">
        <ele>856.1</ele>
        <time>2021-07-11T09:42:37.105Z</time>
      </trkpt>
      <trkpt lat="42.99716" lon="-0.90737">
        <ele>858.7</ele>
        <time>2021-07-11T09:43:47.899Z</time>
      </trkpt>
      <trkpt lat="42.99745" lon="-0.90696">
        <ele>858.4</ele>
        <time>2021-07-11T09:44:16.814Z</time>
      </trkpt>
      <trkpt lat="42.99767" lon="-0.90658">
        <ele>864.3</ele>
        <time>2021-07-11T09:46:02.021Z</time>
      </trkpt>
      <trkpt lat="42.99772" lon="-0.90619">
        <ele>871.8</ele>
        <time>2021-07-11T09:47:27.974Z</time>
      </trkpt>
      <trkpt lat="42.9978" lon="-0.90617">
        <ele>871.8</ele>
        <time>2021-07-11T09:47:34.232Z</time>
      </trkpt>
      <trkpt lat="42.99785" lon="-0.90628">
        <ele>869</ele>
        <time>2021-07-11T09:47:36.035Z</time>
      </trkpt>
      <trkpt lat="42.99813" lon="-0.90666">
        <ele>856.1</ele>
        <time>2021-07-11T09:47:43.545Z</time>
      </trkpt>
      <trkpt lat="42.9983" lon="-0.90681">
        <ele>848.3</ele>
        <time>2021-07-11T09:47:47.397Z</time>
      </trkpt>
      <trkpt lat="42.99839" lon="-0.90693">
        <ele>846</ele>
        <time>2021-07-11T09:47:49.790Z</time>
      </trkpt>
      <trkpt lat="42.99846" lon="-0.90694">
        <ele>848.7</ele>
        <time>2021-07-11T09:48:10.680Z</time>
      </trkpt>
      <trkpt lat="42.9985" lon="-0.90697">
        <ele>849.4</ele>
        <time>2021-07-11T09:48:24.221Z</time>
      </trkpt>
      <trkpt lat="42.99857" lon="-0.90694">
        <ele>853.5</ele>
        <time>2021-07-11T09:48:45.995Z</time>
      </trkpt>
      <trkpt lat="42.99865" lon="-0.90698">
        <ele>855.6</ele>
        <time>2021-07-11T09:49:11.277Z</time>
      </trkpt>
      <trkpt lat="42.9988" lon="-0.90734">
        <ele>851</ele>
        <time>2021-07-11T09:49:17.046Z</time>
      </trkpt>
      <trkpt lat="42.99889" lon="-0.90768">
        <ele>845.9</ele>
        <time>2021-07-11T09:49:22.080Z</time>
      </trkpt>
      <trkpt lat="42.99893" lon="-0.90775">
        <ele>846</ele>
        <time>2021-07-11T09:49:27.900Z</time>
      </trkpt>
      <trkpt lat="42.99895" lon="-0.90782">
        <ele>845.2</ele>
        <time>2021-07-11T09:49:28.947Z</time>
      </trkpt>
      <trkpt lat="42.99903" lon="-0.90793">
        <ele>846.2</ele>
        <time>2021-07-11T09:49:49.298Z</time>
      </trkpt>
      <trkpt lat="42.99952" lon="-0.90842">
        <ele>861.9</ele>
        <time>2021-07-11T09:52:49.481Z</time>
      </trkpt>
      <trkpt lat="42.99961" lon="-0.90856">
        <ele>862.8</ele>
        <time>2021-07-11T09:53:09.975Z</time>
      </trkpt>
      <trkpt lat="42.99985" lon="-0.90882">
        <ele>869.3</ele>
        <time>2021-07-11T09:54:40.858Z</time>
      </trkpt>
      <trkpt lat="42.99991" lon="-0.90895">
        <ele>868.7</ele>
        <time>2021-07-11T09:54:43.038Z</time>
      </trkpt>
      <trkpt lat="43.00015" lon="-0.9092">
        <ele>874.5</ele>
        <time>2021-07-11T09:56:12.589Z</time>
      </trkpt>
      <trkpt lat="43.00022" lon="-0.90931">
        <ele>874</ele>
        <time>2021-07-11T09:56:14.777Z</time>
      </trkpt>
      <trkpt lat="43.00027" lon="-0.90944">
        <ele>871.4</ele>
        <time>2021-07-11T09:56:16.822Z</time>
      </trkpt>
      <trkpt lat="43.0005" lon="-0.90982">
        <ele>867.7</ele>
        <time>2021-07-11T09:56:23.689Z</time>
      </trkpt>
      <trkpt lat="43.00068" lon="-0.90997">
        <ele>870.5</ele>
        <time>2021-07-11T09:57:25.714Z</time>
      </trkpt>
      <trkpt lat="43.00087" lon="-0.91005">
        <ele>875.5</ele>
        <time>2021-07-11T09:58:24.721Z</time>
      </trkpt>
      <trkpt lat="43.00115" lon="-0.91013">
        <ele>877.4</ele>
        <time>2021-07-11T09:59:07.850Z</time>
      </trkpt>
      <trkpt lat="43.00161" lon="-0.90993">
        <ele>897.4</ele>
        <time>2021-07-11T10:01:31.119Z</time>
      </trkpt>
      <trkpt lat="43.00189" lon="-0.90993">
        <ele>904.5</ele>
        <time>2021-07-11T10:02:54.226Z</time>
      </trkpt>
      <trkpt lat="43.00216" lon="-0.91009">
        <ele>903.8</ele>
        <time>2021-07-11T10:03:01.829Z</time>
      </trkpt>
      <trkpt lat="43.00227" lon="-0.91012">
        <ele>905.6</ele>
        <time>2021-07-11T10:03:35.121Z</time>
      </trkpt>
      <trkpt lat="43.0024" lon="-0.91005">
        <ele>912.2</ele>
        <time>2021-07-11T10:04:16.590Z</time>
      </trkpt>
      <trkpt lat="43.0026" lon="-0.91005">
        <ele>919</ele>
        <time>2021-07-11T10:05:15.952Z</time>
      </trkpt>
      <trkpt lat="43.00268" lon="-0.91013">
        <ele>919.3</ele>
        <time>2021-07-11T10:05:26.504Z</time>
      </trkpt>
      <trkpt lat="43.00273" lon="-0.91026">
        <ele>917</ele>
        <time>2021-07-11T10:05:28.549Z</time>
      </trkpt>
      <trkpt lat="43.00292" lon="-0.91045">
        <ele>920.5</ele>
        <time>2021-07-11T10:06:38.415Z</time>
      </trkpt>
      <trkpt lat="43.00313" lon="-0.91091">
        <ele>922.1</ele>
        <time>2021-07-11T10:07:26.819Z</time>
      </trkpt>
      <trkpt lat="43.00319" lon="-0.91133">
        <ele>920.8</ele>
        <time>2021-07-11T10:07:33.561Z</time>
      </trkpt>
      <trkpt lat="43.00323" lon="-0.91174">
        <ele>918.1</ele>
        <time>2021-07-11T10:07:39.320Z</time>
      </trkpt>
      <trkpt lat="43.00332" lon="-0.91184">
        <ele>922.3</ele>
        <time>2021-07-11T10:08:13.740Z</time>
      </trkpt>
      <trkpt lat="43.00356" lon="-0.91209">
        <ele>929.4</ele>
        <time>2021-07-11T10:09:43.289Z</time>
      </trkpt>
      <trkpt lat="43.00366" lon="-0.91218">
        <ele>932.4</ele>
        <time>2021-07-11T10:10:18.822Z</time>
      </trkpt>
      <trkpt lat="43.004" lon="-0.91238">
        <ele>944.7</ele>
        <time>2021-07-11T10:12:08.679Z</time>
      </trkpt>
      <trkpt lat="43.00441" lon="-0.91292">
        <ele>951.2</ele>
        <time>2021-07-11T10:14:20.863Z</time>
      </trkpt>
      <trkpt lat="43.00458" lon="-0.91308">
        <ele>955.2</ele>
        <time>2021-07-11T10:15:22.117Z</time>
      </trkpt>
      <trkpt lat="43.00471" lon="-0.91311">
        <ele>959.8</ele>
        <time>2021-07-11T10:16:01.248Z</time>
      </trkpt>
      <trkpt lat="43.00475" lon="-0.91306">
        <ele>961.9</ele>
        <time>2021-07-11T10:16:17.333Z</time>
      </trkpt>
      <trkpt lat="43.00479" lon="-0.91297">
        <ele>964.4</ele>
        <time>2021-07-11T10:16:40.193Z</time>
      </trkpt>
      <trkpt lat="43.0049" lon="-0.91293">
        <ele>968.8</ele>
        <time>2021-07-11T10:17:13.977Z</time>
      </trkpt>
      <trkpt lat="43.00494" lon="-0.91285">
        <ele>970.9</ele>
        <time>2021-07-11T10:17:35.012Z</time>
      </trkpt>
      <trkpt lat="43.00514" lon="-0.91278">
        <ele>974.8</ele>
        <time>2021-07-11T10:18:36.288Z</time>
      </trkpt>
      <trkpt lat="43.00522" lon="-0.91271">
        <ele>975.8</ele>
        <time>2021-07-11T10:18:56.326Z</time>
      </trkpt>
      <trkpt lat="43.00524" lon="-0.91259">
        <ele>976.5</ele>
        <time>2021-07-11T10:19:11.131Z</time>
      </trkpt>
      <trkpt lat="43.00548" lon="-0.91263">
        <ele>977.6</ele>
        <time>2021-07-11T10:19:42.730Z</time>
      </trkpt>
      <trkpt lat="43.00564" lon="-0.91264">
        <ele>978.5</ele>
        <time>2021-07-11T10:20:05.192Z</time>
      </trkpt>
      <trkpt lat="43.00573" lon="-0.91261">
        <ele>979</ele>
        <time>2021-07-11T10:20:17.990Z</time>
      </trkpt>
      <trkpt lat="43.00567" lon="-0.91251">
        <ele>978.4</ele>
        <time>2021-07-11T10:20:19.681Z</time>
      </trkpt>
      <trkpt lat="43.00553" lon="-0.91207">
        <ele>980.9</ele>
        <time>2021-07-11T10:21:14.531Z</time>
      </trkpt>
      <trkpt lat="43.00536" lon="-0.91176">
        <ele>985.4</ele>
        <time>2021-07-11T10:22:38.635Z</time>
      </trkpt>
      <trkpt lat="43.00516" lon="-0.91132">
        <ele>997.8</ele>
        <time>2021-07-11T10:24:31.084Z</time>
      </trkpt>
      <trkpt lat="43.00512" lon="-0.91122">
        <ele>1001.1</ele>
        <time>2021-07-11T10:24:55.824Z</time>
      </trkpt>
      <trkpt lat="43.00502" lon="-0.91085">
        <ele>1013</ele>
        <time>2021-07-11T10:26:21.444Z</time>
      </trkpt>
      <trkpt lat="43.00491" lon="-0.91051">
        <ele>1017.8</ele>
        <time>2021-07-11T10:27:42.142Z</time>
      </trkpt>
      <trkpt lat="43.00489" lon="-0.91038">
        <ele>1019.7</ele>
        <time>2021-07-11T10:28:10.977Z</time>
      </trkpt>
      <trkpt lat="43.00487" lon="-0.90994">
        <ele>1027.2</ele>
        <time>2021-07-11T10:29:46.666Z</time>
      </trkpt>
      <trkpt lat="43.00485" lon="-0.90975">
        <ele>1027.4</ele>
        <time>2021-07-11T10:29:59.089Z</time>
      </trkpt>
      <trkpt lat="43.0047" lon="-0.90931">
        <ele>1025.9</ele>
        <time>2021-07-11T10:30:06.687Z</time>
      </trkpt>
      <trkpt lat="43.00462" lon="-0.90898">
        <ele>1029.3</ele>
        <time>2021-07-11T10:31:22.148Z</time>
      </trkpt>
      <trkpt lat="43.00459" lon="-0.90871">
        <ele>1034.7</ele>
        <time>2021-07-11T10:32:21.426Z</time>
      </trkpt>
      <trkpt lat="43.00447" lon="-0.90836">
        <ele>1042.1</ele>
        <time>2021-07-11T10:33:45.331Z</time>
      </trkpt>
      <trkpt lat="43.00431" lon="-0.90805">
        <ele>1049.8</ele>
        <time>2021-07-11T10:35:07.689Z</time>
      </trkpt>
      <trkpt lat="43.00417" lon="-0.90766">
        <ele>1060.6</ele>
        <time>2021-07-11T10:36:41.991Z</time>
      </trkpt>
      <trkpt lat="43.0041" lon="-0.90756">
        <ele>1062.8</ele>
        <time>2021-07-11T10:37:12.038Z</time>
      </trkpt>
      <trkpt lat="43.00386" lon="-0.90747">
        <ele>1063.7</ele>
        <time>2021-07-11T10:37:40.674Z</time>
      </trkpt>
      <trkpt lat="43.0037" lon="-0.90732">
        <ele>1066.1</ele>
        <time>2021-07-11T10:38:31.161Z</time>
      </trkpt>
      <trkpt lat="43.00356" lon="-0.90711">
        <ele>1070.8</ele>
        <time>2021-07-11T10:39:32.841Z</time>
      </trkpt>
      <trkpt lat="43.00341" lon="-0.90692">
        <ele>1076.3</ele>
        <time>2021-07-11T10:40:33.529Z</time>
      </trkpt>
      <trkpt lat="43.00326" lon="-0.90671">
        <ele>1083</ele>
        <time>2021-07-11T10:41:37.247Z</time>
      </trkpt>
      <trkpt lat="43.00288" lon="-0.90634">
        <ele>1088.2</ele>
        <time>2021-07-11T10:43:22.344Z</time>
      </trkpt>
      <trkpt lat="43.00282" lon="-0.90625">
        <ele>1089</ele>
        <time>2021-07-11T10:43:38.558Z</time>
      </trkpt>
      <trkpt lat="43.00274" lon="-0.90606">
        <ele>1090.7</ele>
        <time>2021-07-11T10:44:12.645Z</time>
      </trkpt>
      <trkpt lat="43.00269" lon="-0.90559">
        <ele>1093.9</ele>
        <time>2021-07-11T10:45:17.200Z</time>
      </trkpt>
      <trkpt lat="43.00269" lon="-0.90524">
        <ele>1095.9</ele>
        <time>2021-07-11T10:45:59.424Z</time>
      </trkpt>
      <trkpt lat="43.00265" lon="-0.90476">
        <ele>1100</ele>
        <time>2021-07-11T10:47:23.229Z</time>
      </trkpt>
      <trkpt lat="43.00256" lon="-0.90428">
        <ele>1105.5</ele>
        <time>2021-07-11T10:49:10.789Z</time>
      </trkpt>
      <trkpt lat="43.00259" lon="-0.90417">
        <ele>1106.5</ele>
        <time>2021-07-11T10:49:31.255Z</time>
      </trkpt>
      <trkpt lat="43.00263" lon="-0.90398">
        <ele>1109.6</ele>
        <time>2021-07-11T10:50:14.172Z</time>
      </trkpt>
      <trkpt lat="43.00266" lon="-0.90373">
        <ele>1113.8</ele>
        <time>2021-07-11T10:51:09.164Z</time>
      </trkpt>
      <trkpt lat="43.00267" lon="-0.90332">
        <ele>1120.9</ele>
        <time>2021-07-11T10:52:38.209Z</time>
      </trkpt>
      <trkpt lat="43.00265" lon="-0.9031">
        <ele>1126.6</ele>
        <time>2021-07-11T10:53:26.331Z</time>
      </trkpt>
      <trkpt lat="43.00259" lon="-0.9029">
        <ele>1131.8</ele>
        <time>2021-07-11T10:54:13.254Z</time>
      </trkpt>
      <trkpt lat="43.00249" lon="-0.90235">
        <ele>1146.1</ele>
        <time>2021-07-11T10:56:16.274Z</time>
      </trkpt>
      <trkpt lat="43.0024" lon="-0.90195">
        <ele>1155.6</ele>
        <time>2021-07-11T10:57:47.116Z</time>
      </trkpt>
      <trkpt lat="43.00225" lon="-0.90148">
        <ele>1162.7</ele>
        <time>2021-07-11T10:59:38.428Z</time>
      </trkpt>
      <trkpt lat="43.00224" lon="-0.9013">
        <ele>1164.7</ele>
        <time>2021-07-11T11:00:17.612Z</time>
      </trkpt>
      <trkpt lat="43.00217" lon="-0.90121">
        <ele>1164.4</ele>
        <time>2021-07-11T11:00:19.903Z</time>
      </trkpt>
      <trkpt lat="43.00211" lon="-0.9011">
        <ele>1164.5</ele>
        <time>2021-07-11T11:00:28.401Z</time>
      </trkpt>
      <trkpt lat="43.00209" lon="-0.90101">
        <ele>1165.3</ele>
        <time>2021-07-11T11:00:44.765Z</time>
      </trkpt>
      <trkpt lat="43.00206" lon="-0.90064">
        <ele>1169.9</ele>
        <time>2021-07-11T11:02:05.572Z</time>
      </trkpt>
      <trkpt lat="43.00207" lon="-0.90003">
        <ele>1179.3</ele>
        <time>2021-07-11T11:04:18.015Z</time>
      </trkpt>
      <trkpt lat="43.00208" lon="-0.89993">
        <ele>1181.5</ele>
        <time>2021-07-11T11:04:39.924Z</time>
      </trkpt>
      <trkpt lat="43.00216" lon="-0.89979">
        <ele>1185.7</ele>
        <time>2021-07-11T11:05:18.489Z</time>
      </trkpt>
      <trkpt lat="43.00233" lon="-0.8996">
        <ele>1192.2</ele>
        <time>2021-07-11T11:06:23.658Z</time>
      </trkpt>
      <trkpt lat="43.00261" lon="-0.89922">
        <ele>1202.2</ele>
        <time>2021-07-11T11:08:20.749Z</time>
      </trkpt>
      <trkpt lat="43.00278" lon="-0.89905">
        <ele>1206.2</ele>
        <time>2021-07-11T11:09:23.260Z</time>
      </trkpt>
      <trkpt lat="43.00272" lon="-0.89889">
        <ele>1209.2</ele>
        <time>2021-07-11T11:10:02.290Z</time>
      </trkpt>
      <trkpt lat="43.00266" lon="-0.89865">
        <ele>1213.5</ele>
        <time>2021-07-11T11:10:57.345Z</time>
      </trkpt>
      <trkpt lat="43.00262" lon="-0.8984">
        <ele>1217.8</ele>
        <time>2021-07-11T11:11:52.894Z</time>
      </trkpt>
      <trkpt lat="43.0026" lon="-0.89828">
        <ele>1219.8</ele>
        <time>2021-07-11T11:12:19.610Z</time>
      </trkpt>
      <trkpt lat="43.00254" lon="-0.89816">
        <ele>1221.2</ele>
        <time>2021-07-11T11:12:50.388Z</time>
      </trkpt>
      <trkpt lat="43.00248" lon="-0.89809">
        <ele>1222.3</ele>
        <time>2021-07-11T11:13:13.798Z</time>
      </trkpt>
      <trkpt lat="43.00242" lon="-0.89805">
        <ele>1224.2</ele>
        <time>2021-07-11T11:13:33.611Z</time>
      </trkpt>
      <trkpt lat="43.00236" lon="-0.89805">
        <ele>1225.3</ele>
        <time>2021-07-11T11:13:51.419Z</time>
      </trkpt>
      <trkpt lat="43.0023" lon="-0.89811">
        <ele>1225</ele>
        <time>2021-07-11T11:13:53.038Z</time>
      </trkpt>
      <trkpt lat="43.0022" lon="-0.89834">
        <ele>1221.1</ele>
        <time>2021-07-11T11:13:56.764Z</time>
      </trkpt>
      <trkpt lat="43.00213" lon="-0.89843">
        <ele>1219.6</ele>
        <time>2021-07-11T11:13:58.593Z</time>
      </trkpt>
      <trkpt lat="43.00186" lon="-0.89854">
        <ele>1218.6</ele>
        <time>2021-07-11T11:14:05.026Z</time>
      </trkpt>
      <trkpt lat="43.00117" lon="-0.89856">
        <ele>1218.9</ele>
        <time>2021-07-11T11:15:00.336Z</time>
      </trkpt>
      <trkpt lat="43.00037" lon="-0.89837">
        <ele>1216.7</ele>
        <time>2021-07-11T11:15:20.564Z</time>
      </trkpt>
      <trkpt lat="43.00022" lon="-0.89829">
        <ele>1216.3</ele>
        <time>2021-07-11T11:15:24.675Z</time>
      </trkpt>
      <trkpt lat="42.99997" lon="-0.89811">
        <ele>1217.2</ele>
        <time>2021-07-11T11:15:55.374Z</time>
      </trkpt>
      <trkpt lat="42.99992" lon="-0.89807">
        <ele>1217.1</ele>
        <time>2021-07-11T11:15:56.989Z</time>
      </trkpt>
      <trkpt lat="42.99965" lon="-0.89773">
        <ele>1221.3</ele>
        <time>2021-07-11T11:17:22.453Z</time>
      </trkpt>
      <trkpt lat="42.99907" lon="-0.89721">
        <ele>1226.3</ele>
        <time>2021-07-11T11:19:11.568Z</time>
      </trkpt>
      <trkpt lat="42.99887" lon="-0.89712">
        <ele>1225.9</ele>
        <time>2021-07-11T11:19:17.317Z</time>
      </trkpt>
      <trkpt lat="42.99841" lon="-0.89668">
        <ele>1235.2</ele>
        <time>2021-07-11T11:22:03.943Z</time>
      </trkpt>
      <trkpt lat="42.99772" lon="-0.89644">
        <ele>1230.2</ele>
        <time>2021-07-11T11:22:17.497Z</time>
      </trkpt>
      <trkpt lat="42.99729" lon="-0.89622">
        <ele>1231.7</ele>
        <time>2021-07-11T11:23:07.914Z</time>
      </trkpt>
      <trkpt lat="42.99702" lon="-0.89607">
        <ele>1233.2</ele>
        <time>2021-07-11T11:23:47.509Z</time>
      </trkpt>
      <trkpt lat="42.99675" lon="-0.89588">
        <ele>1235.8</ele>
        <time>2021-07-11T11:24:40.807Z</time>
      </trkpt>
      <trkpt lat="42.99649" lon="-0.89576">
        <ele>1237.6</ele>
        <time>2021-07-11T11:25:21.932Z</time>
      </trkpt>
      <trkpt lat="42.99577" lon="-0.89534">
        <ele>1247.9</ele>
        <time>2021-07-11T11:29:08.210Z</time>
      </trkpt>
      <trkpt lat="42.99562" lon="-0.8953">
        <ele>1251</ele>
        <time>2021-07-11T11:29:53.571Z</time>
      </trkpt>
      <trkpt lat="42.99547" lon="-0.89531">
        <ele>1252.3</ele>
        <time>2021-07-11T11:30:20.144Z</time>
      </trkpt>
      <trkpt lat="42.99485" lon="-0.89588">
        <ele>1242.2</ele>
        <time>2021-07-11T11:30:34.367Z</time>
      </trkpt>
      <trkpt lat="42.9947" lon="-0.89586">
        <ele>1243.9</ele>
        <time>2021-07-11T11:31:08.823Z</time>
      </trkpt>
      <trkpt lat="42.99455" lon="-0.8958">
        <ele>1246.7</ele>
        <time>2021-07-11T11:31:55.211Z</time>
      </trkpt>
      <trkpt lat="42.99447" lon="-0.89581">
        <ele>1247.1</ele>
        <time>2021-07-11T11:32:06.005Z</time>
      </trkpt>
      <trkpt lat="42.99435" lon="-0.89597">
        <ele>1244.6</ele>
        <time>2021-07-11T11:32:09.196Z</time>
      </trkpt>
      <trkpt lat="42.99416" lon="-0.89614">
        <ele>1242.9</ele>
        <time>2021-07-11T11:32:13.519Z</time>
      </trkpt>
      <trkpt lat="42.99407" lon="-0.89619">
        <ele>1243.4</ele>
        <time>2021-07-11T11:32:26.717Z</time>
      </trkpt>
      <trkpt lat="42.99395" lon="-0.89619">
        <ele>1245.5</ele>
        <time>2021-07-11T11:33:02.334Z</time>
      </trkpt>
      <trkpt lat="42.99382" lon="-0.89612">
        <ele>1249.1</ele>
        <time>2021-07-11T11:33:43.804Z</time>
      </trkpt>
      <trkpt lat="42.9937" lon="-0.89609">
        <ele>1251.7</ele>
        <time>2021-07-11T11:34:20.012Z</time>
      </trkpt>
      <trkpt lat="42.99365" lon="-0.89613">
        <ele>1251.9</ele>
        <time>2021-07-11T11:34:26.531Z</time>
      </trkpt>
      <trkpt lat="42.99363" lon="-0.89623">
        <ele>1250.5</ele>
        <time>2021-07-11T11:34:27.975Z</time>
      </trkpt>
      <trkpt lat="42.99369" lon="-0.89664">
        <ele>1242.2</ele>
        <time>2021-07-11T11:34:33.797Z</time>
      </trkpt>
      <trkpt lat="42.99368" lon="-0.89678">
        <ele>1239.7</ele>
        <time>2021-07-11T11:34:35.756Z</time>
      </trkpt>
      <trkpt lat="42.99363" lon="-0.89693">
        <ele>1237.7</ele>
        <time>2021-07-11T11:34:38.051Z</time>
      </trkpt>
      <trkpt lat="42.9935" lon="-0.89706">
        <ele>1237.5</ele>
        <time>2021-07-11T11:34:42.821Z</time>
      </trkpt>
      <trkpt lat="42.99339" lon="-0.89711">
        <ele>1238.4</ele>
        <time>2021-07-11T11:35:01.868Z</time>
      </trkpt>
      <trkpt lat="42.99322" lon="-0.89714">
        <ele>1240</ele>
        <time>2021-07-11T11:35:34.080Z</time>
      </trkpt>
      <trkpt lat="42.99293" lon="-0.89729">
        <ele>1239.3</ele>
        <time>2021-07-11T11:35:42.201Z</time>
      </trkpt>
      <trkpt lat="42.99277" lon="-0.89734">
        <ele>1239.4</ele>
        <time>2021-07-11T11:35:55.577Z</time>
      </trkpt>
      <trkpt lat="42.99259" lon="-0.89742">
        <ele>1238.7</ele>
        <time>2021-07-11T11:35:59.836Z</time>
      </trkpt>
      <trkpt lat="42.99242" lon="-0.89751">
        <ele>1238.4</ele>
        <time>2021-07-11T11:36:04.969Z</time>
      </trkpt>
      <trkpt lat="42.99192" lon="-0.89795">
        <ele>1236.8</ele>
        <time>2021-07-11T11:36:19.812Z</time>
      </trkpt>
      <trkpt lat="42.99179" lon="-0.89804">
        <ele>1236.1</ele>
        <time>2021-07-11T11:36:22.771Z</time>
      </trkpt>
      <trkpt lat="42.99171" lon="-0.89808">
        <ele>1236</ele>
        <time>2021-07-11T11:36:25.317Z</time>
      </trkpt>
      <trkpt lat="42.99162" lon="-0.89809">
        <ele>1236</ele>
        <time>2021-07-11T11:36:32.265Z</time>
      </trkpt>
      <trkpt lat="42.99143" lon="-0.8981">
        <ele>1234.7</ele>
        <time>2021-07-11T11:36:35.885Z</time>
      </trkpt>
      <trkpt lat="42.99124" lon="-0.89806">
        <ele>1235.1</ele>
        <time>2021-07-11T11:36:54.161Z</time>
      </trkpt>
      <trkpt lat="42.99112" lon="-0.89799">
        <ele>1237.3</ele>
        <time>2021-07-11T11:37:32.885Z</time>
      </trkpt>
      <trkpt lat="42.99086" lon="-0.89776">
        <ele>1246.4</ele>
        <time>2021-07-11T11:39:04.802Z</time>
      </trkpt>
      <trkpt lat="42.99066" lon="-0.89764">
        <ele>1249.4</ele>
        <time>2021-07-11T11:40:09.629Z</time>
      </trkpt>
      <trkpt lat="42.99043" lon="-0.89755">
        <ele>1250.3</ele>
        <time>2021-07-11T11:40:37.717Z</time>
      </trkpt>
      <trkpt lat="42.99014" lon="-0.89755">
        <ele>1246.4</ele>
        <time>2021-07-11T11:40:43.238Z</time>
      </trkpt>
      <trkpt lat="42.98996" lon="-0.89753">
        <ele>1243.8</ele>
        <time>2021-07-11T11:40:46.676Z</time>
      </trkpt>
      <trkpt lat="42.98959" lon="-0.89735">
        <ele>1235.7</ele>
        <time>2021-07-11T11:40:54.152Z</time>
      </trkpt>
      <trkpt lat="42.98955" lon="-0.89734">
        <ele>1234.4</ele>
        <time>2021-07-11T11:40:54.926Z</time>
      </trkpt>
      <trkpt lat="42.98947" lon="-0.89727">
        <ele>1233.8</ele>
        <time>2021-07-11T11:40:56.628Z</time>
      </trkpt>
      <trkpt lat="42.98937" lon="-0.89714">
        <ele>1234.8</ele>
        <time>2021-07-11T11:41:18.401Z</time>
      </trkpt>
      <trkpt lat="42.98896" lon="-0.89634">
        <ele>1253.2</ele>
        <time>2021-07-11T11:44:50.478Z</time>
      </trkpt>
      <trkpt lat="42.98881" lon="-0.89612">
        <ele>1259.1</ele>
        <time>2021-07-11T11:45:55.774Z</time>
      </trkpt>
      <trkpt lat="42.98874" lon="-0.89605">
        <ele>1260.6</ele>
        <time>2021-07-11T11:46:21.516Z</time>
      </trkpt>
      <trkpt lat="42.98868" lon="-0.89603">
        <ele>1260.2</ele>
        <time>2021-07-11T11:46:22.609Z</time>
      </trkpt>
      <trkpt lat="42.98862" lon="-0.89604">
        <ele>1258.5</ele>
        <time>2021-07-11T11:46:23.760Z</time>
      </trkpt>
      <trkpt lat="42.98857" lon="-0.89607">
        <ele>1256.2</ele>
        <time>2021-07-11T11:46:24.799Z</time>
      </trkpt>
      <trkpt lat="42.9884" lon="-0.89632">
        <ele>1241.3</ele>
        <time>2021-07-11T11:46:29.552Z</time>
      </trkpt>
      <trkpt lat="42.98833" lon="-0.89638">
        <ele>1237.2</ele>
        <time>2021-07-11T11:46:31.125Z</time>
      </trkpt>
      <trkpt lat="42.98826" lon="-0.89641">
        <ele>1238</ele>
        <time>2021-07-11T11:46:47.225Z</time>
      </trkpt>
      <trkpt lat="42.98798" lon="-0.89637">
        <ele>1248.7</ele>
        <time>2021-07-11T11:48:10.785Z</time>
      </trkpt>
      <trkpt lat="42.98781" lon="-0.8964">
        <ele>1252.7</ele>
        <time>2021-07-11T11:49:01.661Z</time>
      </trkpt>
      <trkpt lat="42.98772" lon="-0.89647">
        <ele>1252.5</ele>
        <time>2021-07-11T11:49:04.478Z</time>
      </trkpt>
      <trkpt lat="42.98758" lon="-0.89693">
        <ele>1241.2</ele>
        <time>2021-07-11T11:49:11.416Z</time>
      </trkpt>
      <trkpt lat="42.98745" lon="-0.89721">
        <ele>1238.2</ele>
        <time>2021-07-11T11:49:16.034Z</time>
      </trkpt>
      <trkpt lat="42.9871" lon="-0.89779">
        <ele>1230.2</ele>
        <time>2021-07-11T11:49:26.505Z</time>
      </trkpt>
      <trkpt lat="42.98698" lon="-0.89795">
        <ele>1228.5</ele>
        <time>2021-07-11T11:49:29.696Z</time>
      </trkpt>
      <trkpt lat="42.98686" lon="-0.89796">
        <ele>1231.5</ele>
        <time>2021-07-11T11:50:05.379Z</time>
      </trkpt>
      <trkpt lat="42.98676" lon="-0.89791">
        <ele>1235.7</ele>
        <time>2021-07-11T11:50:36.983Z</time>
      </trkpt>
      <trkpt lat="42.98624" lon="-0.89749">
        <ele>1249.5</ele>
        <time>2021-07-11T11:53:36.251Z</time>
      </trkpt>
      <trkpt lat="42.98611" lon="-0.89744">
        <ele>1251.7</ele>
        <time>2021-07-11T11:54:16.334Z</time>
      </trkpt>
      <trkpt lat="42.98572" lon="-0.89757">
        <ele>1247</ele>
        <time>2021-07-11T11:54:23.976Z</time>
      </trkpt>
      <trkpt lat="42.98553" lon="-0.89759">
        <ele>1248.5</ele>
        <time>2021-07-11T11:54:55.559Z</time>
      </trkpt>
      <trkpt lat="42.98532" lon="-0.89773">
        <ele>1244.3</ele>
        <time>2021-07-11T11:55:00.007Z</time>
      </trkpt>
      <trkpt lat="42.98514" lon="-0.89776">
        <ele>1244.3</ele>
        <time>2021-07-11T11:55:13.960Z</time>
      </trkpt>
      <trkpt lat="42.98473" lon="-0.8978">
        <ele>1249.9</ele>
        <time>2021-07-11T11:57:15.962Z</time>
      </trkpt>
      <trkpt lat="42.98442" lon="-0.89794">
        <ele>1252.3</ele>
        <time>2021-07-11T11:58:07.890Z</time>
      </trkpt>
      <trkpt lat="42.98403" lon="-0.89808">
        <ele>1252.6</ele>
        <time>2021-07-11T11:58:41.188Z</time>
      </trkpt>
      <trkpt lat="42.98393" lon="-0.89809">
        <ele>1250.4</ele>
        <time>2021-07-11T11:58:43.096Z</time>
      </trkpt>
      <trkpt lat="42.98381" lon="-0.89805">
        <ele>1249.5</ele>
        <time>2021-07-11T11:58:45.448Z</time>
      </trkpt>
      <trkpt lat="42.98356" lon="-0.89777">
        <ele>1254.8</ele>
        <time>2021-07-11T12:00:21.376Z</time>
      </trkpt>
      <trkpt lat="42.98322" lon="-0.89762">
        <ele>1251.5</ele>
        <time>2021-07-11T12:00:28.177Z</time>
      </trkpt>
      <trkpt lat="42.98313" lon="-0.89753">
        <ele>1250.9</ele>
        <time>2021-07-11T12:00:30.332Z</time>
      </trkpt>
      <trkpt lat="42.98288" lon="-0.89691">
        <ele>1250</ele>
        <time>2021-07-11T12:00:44.751Z</time>
      </trkpt>
      <trkpt lat="42.98266" lon="-0.89617">
        <ele>1251.1</ele>
        <time>2021-07-11T12:01:39.086Z</time>
      </trkpt>
      <trkpt lat="42.98253" lon="-0.89583">
        <ele>1249.7</ele>
        <time>2021-07-11T12:01:44.694Z</time>
      </trkpt>
      <trkpt lat="42.982" lon="-0.89487">
        <ele>1239.8</ele>
        <time>2021-07-11T12:02:01.443Z</time>
      </trkpt>
      <trkpt lat="42.98165" lon="-0.89412">
        <ele>1237.4</ele>
        <time>2021-07-11T12:02:16.103Z</time>
      </trkpt>
      <trkpt lat="42.9816" lon="-0.89392">
        <ele>1236.3</ele>
        <time>2021-07-11T12:02:19.047Z</time>
      </trkpt>
      <trkpt lat="42.98158" lon="-0.89372">
        <ele>1236.8</ele>
        <time>2021-07-11T12:02:35.519Z</time>
      </trkpt>
      <trkpt lat="42.98157" lon="-0.89339">
        <ele>1238.8</ele>
        <time>2021-07-11T12:03:16.921Z</time>
      </trkpt>
      <trkpt lat="42.98162" lon="-0.89252">
        <ele>1237.9</ele>
        <time>2021-07-11T12:03:35.430Z</time>
      </trkpt>
      <trkpt lat="42.98169" lon="-0.89228">
        <ele>1238.8</ele>
        <time>2021-07-11T12:04:00.471Z</time>
      </trkpt>
      <trkpt lat="42.98176" lon="-0.89211">
        <ele>1240.9</ele>
        <time>2021-07-11T12:04:42.830Z</time>
      </trkpt>
      <trkpt lat="42.98177" lon="-0.89196">
        <ele>1240.3</ele>
        <time>2021-07-11T12:04:44.948Z</time>
      </trkpt>
      <trkpt lat="42.98172" lon="-0.89178">
        <ele>1237</ele>
        <time>2021-07-11T12:04:47.629Z</time>
      </trkpt>
      <trkpt lat="42.98172" lon="-0.8916">
        <ele>1237.2</ele>
        <time>2021-07-11T12:04:59.400Z</time>
      </trkpt>
      <trkpt lat="42.98176" lon="-0.8912">
        <ele>1244.4</ele>
        <time>2021-07-11T12:06:27.063Z</time>
      </trkpt>
      <trkpt lat="42.98173" lon="-0.89109">
        <ele>1245</ele>
        <time>2021-07-11T12:06:40.347Z</time>
      </trkpt>
      <trkpt lat="42.98165" lon="-0.891">
        <ele>1244.5</ele>
        <time>2021-07-11T12:06:42.447Z</time>
      </trkpt>
      <trkpt lat="42.98154" lon="-0.89097">
        <ele>1245.5</ele>
        <time>2021-07-11T12:07:02.747Z</time>
      </trkpt>
      <trkpt lat="42.98139" lon="-0.89101">
        <ele>1245.5</ele>
        <time>2021-07-11T12:07:14.508Z</time>
      </trkpt>
      <trkpt lat="42.98093" lon="-0.89132">
        <ele>1239.5</ele>
        <time>2021-07-11T12:07:24.271Z</time>
      </trkpt>
      <trkpt lat="42.98061" lon="-0.89167">
        <ele>1230.5</ele>
        <time>2021-07-11T12:07:32.073Z</time>
      </trkpt>
      <trkpt lat="42.98049" lon="-0.89175">
        <ele>1229.4</ele>
        <time>2021-07-11T12:07:34.615Z</time>
      </trkpt>
      <trkpt lat="42.98038" lon="-0.89175">
        <ele>1229.6</ele>
        <time>2021-07-11T12:07:44.771Z</time>
      </trkpt>
      <trkpt lat="42.98021" lon="-0.89169">
        <ele>1231</ele>
        <time>2021-07-11T12:08:14.112Z</time>
      </trkpt>
      <trkpt lat="42.98003" lon="-0.89158">
        <ele>1233.9</ele>
        <time>2021-07-11T12:09:12.634Z</time>
      </trkpt>
      <trkpt lat="42.97986" lon="-0.89145">
        <ele>1234.6</ele>
        <time>2021-07-11T12:09:34.978Z</time>
      </trkpt>
      <trkpt lat="42.97964" lon="-0.89122">
        <ele>1235.4</ele>
        <time>2021-07-11T12:10:03.959Z</time>
      </trkpt>
      <trkpt lat="42.97939" lon="-0.89095">
        <ele>1235.1</ele>
        <time>2021-07-11T12:10:13.775Z</time>
      </trkpt>
      <trkpt lat="42.97927" lon="-0.89081">
        <ele>1234.6</ele>
        <time>2021-07-11T12:10:17.519Z</time>
      </trkpt>
      <trkpt lat="42.97916" lon="-0.89064">
        <ele>1233.8</ele>
        <time>2021-07-11T12:10:20.887Z</time>
      </trkpt>
      <trkpt lat="42.97909" lon="-0.89049">
        <ele>1235</ele>
        <time>2021-07-11T12:10:45.092Z</time>
      </trkpt>
      <trkpt lat="42.97907" lon="-0.89038">
        <ele>1235.9</ele>
        <time>2021-07-11T12:11:03.191Z</time>
      </trkpt>
      <trkpt lat="42.97903" lon="-0.88997">
        <ele>1239.1</ele>
        <time>2021-07-11T12:12:07.338Z</time>
      </trkpt>
      <trkpt lat="42.97909" lon="-0.88982">
        <ele>1240.6</ele>
        <time>2021-07-11T12:12:38.399Z</time>
      </trkpt>
      <trkpt lat="42.97895" lon="-0.88893">
        <ele>1244.5</ele>
        <time>2021-07-11T12:14:13.335Z</time>
      </trkpt>
      <trkpt lat="42.97874" lon="-0.88823">
        <ele>1244.5</ele>
        <time>2021-07-11T12:14:55.928Z</time>
      </trkpt>
      <trkpt lat="42.97876" lon="-0.8878">
        <ele>1247.7</ele>
        <time>2021-07-11T12:15:59.953Z</time>
      </trkpt>
      <trkpt lat="42.97873" lon="-0.88766">
        <ele>1248.1</ele>
        <time>2021-07-11T12:16:12.459Z</time>
      </trkpt>
      <trkpt lat="42.97872" lon="-0.88761">
        <ele>1248.2</ele>
        <time>2021-07-11T12:16:16.306Z</time>
      </trkpt>
      <trkpt lat="42.97857" lon="-0.88714">
        <ele>1251.1</ele>
        <time>2021-07-11T12:17:17.781Z</time>
      </trkpt>
      <trkpt lat="42.97853" lon="-0.88695">
        <ele>1253</ele>
        <time>2021-07-11T12:17:59.461Z</time>
      </trkpt>
      <trkpt lat="42.97847" lon="-0.88655">
        <ele>1257.6</ele>
        <time>2021-07-11T12:19:28.127Z</time>
      </trkpt>
      <trkpt lat="42.9784" lon="-0.88633">
        <ele>1259.8</ele>
        <time>2021-07-11T12:20:14.769Z</time>
      </trkpt>
      <trkpt lat="42.97835" lon="-0.88597">
        <ele>1264.3</ele>
        <time>2021-07-11T12:21:34.339Z</time>
      </trkpt>
      <trkpt lat="42.97833" lon="-0.88554">
        <ele>1270.6</ele>
        <time>2021-07-11T12:23:07.901Z</time>
      </trkpt>
      <trkpt lat="42.97836" lon="-0.8849">
        <ele>1281.6</ele>
        <time>2021-07-11T12:25:27.162Z</time>
      </trkpt>
      <trkpt lat="42.97839" lon="-0.88458">
        <ele>1288</ele>
        <time>2021-07-11T12:26:37.218Z</time>
      </trkpt>
      <trkpt lat="42.97845" lon="-0.88435">
        <ele>1293.9</ele>
        <time>2021-07-11T12:27:30.242Z</time>
      </trkpt>
      <trkpt lat="42.97837" lon="-0.88432">
        <ele>1291.7</ele>
        <time>2021-07-11T12:27:31.822Z</time>
      </trkpt>
      <trkpt lat="42.97832" lon="-0.88424">
        <ele>1292.1</ele>
        <time>2021-07-11T12:27:42.314Z</time>
      </trkpt>
      <trkpt lat="42.97829" lon="-0.88411">
        <ele>1295.5</ele>
        <time>2021-07-11T12:28:11.915Z</time>
      </trkpt>
      <trkpt lat="42.97825" lon="-0.88373">
        <ele>1305.2</ele>
        <time>2021-07-11T12:29:35.281Z</time>
      </trkpt>
      <trkpt lat="42.97821" lon="-0.88332">
        <ele>1315.2</ele>
        <time>2021-07-11T12:31:05.101Z</time>
      </trkpt>
      <trkpt lat="42.97826" lon="-0.88309">
        <ele>1319.4</ele>
        <time>2021-07-11T12:31:57.203Z</time>
      </trkpt>
      <trkpt lat="42.97814" lon="-0.88257">
        <ele>1331.3</ele>
        <time>2021-07-11T12:33:55.605Z</time>
      </trkpt>
      <trkpt lat="42.97812" lon="-0.88236">
        <ele>1336.2</ele>
        <time>2021-07-11T12:34:41.592Z</time>
      </trkpt>
      <trkpt lat="42.97796" lon="-0.88202">
        <ele>1344.7</ele>
        <time>2021-07-11T12:36:09.377Z</time>
      </trkpt>
      <trkpt lat="42.97795" lon="-0.88197">
        <ele>1345.9</ele>
        <time>2021-07-11T12:36:20.633Z</time>
      </trkpt>
      <trkpt lat="42.97795" lon="-0.88194">
        <ele>1346.6</ele>
        <time>2021-07-11T12:36:27.148Z</time>
      </trkpt>
      <trkpt lat="42.97798" lon="-0.88176">
        <ele>1350.9</ele>
        <time>2021-07-11T12:37:07.236Z</time>
      </trkpt>
      <trkpt lat="42.97801" lon="-0.88168">
        <ele>1352.9</ele>
        <time>2021-07-11T12:37:26.757Z</time>
      </trkpt>
      <trkpt lat="42.97803" lon="-0.88152">
        <ele>1356.5</ele>
        <time>2021-07-11T12:38:02.005Z</time>
      </trkpt>
      <trkpt lat="42.97809" lon="-0.88137">
        <ele>1359.8</ele>
        <time>2021-07-11T12:38:39.128Z</time>
      </trkpt>
      <trkpt lat="42.9781" lon="-0.88123">
        <ele>1362.9</ele>
        <time>2021-07-11T12:39:09.673Z</time>
      </trkpt>
      <trkpt lat="42.97825" lon="-0.88095">
        <ele>1368.2</ele>
        <time>2021-07-11T12:40:25.033Z</time>
      </trkpt>
      <trkpt lat="42.97842" lon="-0.88071">
        <ele>1370.6</ele>
        <time>2021-07-11T12:41:13.097Z</time>
      </trkpt>
      <trkpt lat="42.97845" lon="-0.88054">
        <ele>1370.5</ele>
        <time>2021-07-11T12:41:17.125Z</time>
      </trkpt>
      <trkpt lat="42.97851" lon="-0.88049">
        <ele>1370.5</ele>
        <time>2021-07-11T12:41:22.532Z</time>
      </trkpt>
      <trkpt lat="42.97855" lon="-0.88042">
        <ele>1370.3</ele>
        <time>2021-07-11T12:41:24.089Z</time>
      </trkpt>
      <trkpt lat="42.97853" lon="-0.88027">
        <ele>1369.9</ele>
        <time>2021-07-11T12:41:26.627Z</time>
      </trkpt>
      <trkpt lat="42.97818" lon="-0.87972">
        <ele>1364.8</ele>
        <time>2021-07-11T12:41:36.779Z</time>
      </trkpt>
      <trkpt lat="42.97803" lon="-0.87957">
        <ele>1362.4</ele>
        <time>2021-07-11T12:41:40.318Z</time>
      </trkpt>
      <trkpt lat="42.97788" lon="-0.87947">
        <ele>1361.6</ele>
        <time>2021-07-11T12:41:43.710Z</time>
      </trkpt>
      <trkpt lat="42.97749" lon="-0.87932">
        <ele>1362.7</ele>
        <time>2021-07-11T12:42:25.206Z</time>
      </trkpt>
      <trkpt lat="42.97725" lon="-0.87918">
        <ele>1364.1</ele>
        <time>2021-07-11T12:43:01.177Z</time>
      </trkpt>
      <trkpt lat="42.97713" lon="-0.87907">
        <ele>1363.4</ele>
        <time>2021-07-11T12:43:04.101Z</time>
      </trkpt>
      <trkpt lat="42.97699" lon="-0.87878">
        <ele>1357.9</ele>
        <time>2021-07-11T12:43:08.940Z</time>
      </trkpt>
      <trkpt lat="42.97663" lon="-0.87826">
        <ele>1351.8</ele>
        <time>2021-07-11T12:43:18.911Z</time>
      </trkpt>
      <trkpt lat="42.97657" lon="-0.87817">
        <ele>1352</ele>
        <time>2021-07-11T12:43:27.541Z</time>
      </trkpt>
      <trkpt lat="42.97655" lon="-0.87807">
        <ele>1350.6</ele>
        <time>2021-07-11T12:43:28.985Z</time>
      </trkpt>
      <trkpt lat="42.97645" lon="-0.87722">
        <ele>1336.8</ele>
        <time>2021-07-11T12:43:40.976Z</time>
      </trkpt>
      <trkpt lat="42.97639" lon="-0.87701">
        <ele>1334.3</ele>
        <time>2021-07-11T12:43:44.116Z</time>
      </trkpt>
      <trkpt lat="42.97601" lon="-0.87613">
        <ele>1321.9</ele>
        <time>2021-07-11T12:43:58.348Z</time>
      </trkpt>
      <trkpt lat="42.97591" lon="-0.87605">
        <ele>1321.6</ele>
        <time>2021-07-11T12:44:01.273Z</time>
      </trkpt>
      <trkpt lat="42.97575" lon="-0.876">
        <ele>1324.5</ele>
        <time>2021-07-11T12:44:49.988Z</time>
      </trkpt>
      <trkpt lat="42.97568" lon="-0.87594">
        <ele>1325</ele>
        <time>2021-07-11T12:45:01.928Z</time>
      </trkpt>
      <trkpt lat="42.97556" lon="-0.87572">
        <ele>1323.4</ele>
        <time>2021-07-11T12:45:05.750Z</time>
      </trkpt>
      <trkpt lat="42.97544" lon="-0.87559">
        <ele>1325</ele>
        <time>2021-07-11T12:45:37.794Z</time>
      </trkpt>
      <trkpt lat="42.97538" lon="-0.87548">
        <ele>1324.9</ele>
        <time>2021-07-11T12:45:40.864Z</time>
      </trkpt>
      <trkpt lat="42.97531" lon="-0.8753">
        <ele>1323.7</ele>
        <time>2021-07-11T12:45:43.703Z</time>
      </trkpt>
      <trkpt lat="42.97524" lon="-0.87492">
        <ele>1318.8</ele>
        <time>2021-07-11T12:45:49.161Z</time>
      </trkpt>
      <trkpt lat="42.97508" lon="-0.87436">
        <ele>1316.6</ele>
        <time>2021-07-11T12:45:57.940Z</time>
      </trkpt>
      <trkpt lat="42.97504" lon="-0.87417">
        <ele>1315.4</ele>
        <time>2021-07-11T12:46:00.694Z</time>
      </trkpt>
      <trkpt lat="42.97503" lon="-0.8735">
        <ele>1316.5</ele>
        <time>2021-07-11T12:46:48.182Z</time>
      </trkpt>
      <trkpt lat="42.97504" lon="-0.87349">
        <ele>1316.1</ele>
        <time>2021-07-11T12:46:48.418Z</time>
      </trkpt>
      <trkpt lat="42.97509" lon="-0.87332">
        <ele>1314.1</ele>
        <time>2021-07-11T12:46:50.970Z</time>
      </trkpt>
      <trkpt lat="42.97518" lon="-0.87313">
        <ele>1311.5</ele>
        <time>2021-07-11T12:46:54.123Z</time>
      </trkpt>
      <trkpt lat="42.97538" lon="-0.87289">
        <ele>1305</ele>
        <time>2021-07-11T12:46:59.189Z</time>
      </trkpt>
      <trkpt lat="42.97558" lon="-0.87244">
        <ele>1300.5</ele>
        <time>2021-07-11T12:47:06.523Z</time>
      </trkpt>
      <trkpt lat="42.97567" lon="-0.8722">
        <ele>1296.4</ele>
        <time>2021-07-11T12:47:10.279Z</time>
      </trkpt>
      <trkpt lat="42.97594" lon="-0.8718">
        <ele>1287.5</ele>
        <time>2021-07-11T12:47:17.859Z</time>
      </trkpt>
      <trkpt lat="42.97604" lon="-0.87162">
        <ele>1283.5</ele>
        <time>2021-07-11T12:47:21.007Z</time>
      </trkpt>
      <trkpt lat="42.97612" lon="-0.87135">
        <ele>1277.7</ele>
        <time>2021-07-11T12:47:25.065Z</time>
      </trkpt>
      <trkpt lat="42.97615" lon="-0.87114">
        <ele>1274.5</ele>
        <time>2021-07-11T12:47:28.045Z</time>
      </trkpt>
      <trkpt lat="42.97614" lon="-0.87104">
        <ele>1273.7</ele>
        <time>2021-07-11T12:47:29.451Z</time>
      </trkpt>
      <trkpt lat="42.97614" lon="-0.87095">
        <ele>1272.7</ele>
        <time>2021-07-11T12:47:30.704Z</time>
      </trkpt>
      <trkpt lat="42.97606" lon="-0.87084">
        <ele>1273.2</ele>
        <time>2021-07-11T12:47:45.345Z</time>
      </trkpt>
      <trkpt lat="42.97591" lon="-0.87075">
        <ele>1275</ele>
        <time>2021-07-11T12:48:21.619Z</time>
      </trkpt>
      <trkpt lat="42.97572" lon="-0.87068">
        <ele>1277.9</ele>
        <time>2021-07-11T12:49:20.025Z</time>
      </trkpt>
      <trkpt lat="42.97558" lon="-0.87057">
        <ele>1279</ele>
        <time>2021-07-11T12:49:44.680Z</time>
      </trkpt>
      <trkpt lat="42.97551" lon="-0.87049">
        <ele>1279.2</ele>
        <time>2021-07-11T12:49:53.466Z</time>
      </trkpt>
      <trkpt lat="42.97548" lon="-0.87041">
        <ele>1278.5</ele>
        <time>2021-07-11T12:49:54.718Z</time>
      </trkpt>
      <trkpt lat="42.97551" lon="-0.8703">
        <ele>1276</ele>
        <time>2021-07-11T12:49:56.353Z</time>
      </trkpt>
      <trkpt lat="42.9756" lon="-0.87026">
        <ele>1273.4</ele>
        <time>2021-07-11T12:49:58.154Z</time>
      </trkpt>
      <trkpt lat="42.97581" lon="-0.87043">
        <ele>1271.7</ele>
        <time>2021-07-11T12:50:02.801Z</time>
      </trkpt>
      <trkpt lat="42.97592" lon="-0.87043">
        <ele>1269.6</ele>
        <time>2021-07-11T12:50:04.895Z</time>
      </trkpt>
      <trkpt lat="42.97635" lon="-0.87037">
        <ele>1260.4</ele>
        <time>2021-07-11T12:50:13.123Z</time>
      </trkpt>
      <trkpt lat="42.97698" lon="-0.86993">
        <ele>1243.9</ele>
        <time>2021-07-11T12:50:26.592Z</time>
      </trkpt>
      <trkpt lat="42.97709" lon="-0.86993">
        <ele>1242.2</ele>
        <time>2021-07-11T12:50:28.686Z</time>
      </trkpt>
      <trkpt lat="42.9771" lon="-0.86993">
        <ele>1242.1</ele>
        <time>2021-07-11T12:50:28.876Z</time>
      </trkpt>
      <trkpt lat="42.97714" lon="-0.86999">
        <ele>1242.5</ele>
        <time>2021-07-11T12:50:37.892Z</time>
      </trkpt>
      <trkpt lat="42.97719" lon="-0.8701">
        <ele>1242.1</ele>
        <time>2021-07-11T12:50:39.920Z</time>
      </trkpt>
      <trkpt lat="42.97723" lon="-0.87065">
        <ele>1242.2</ele>
        <time>2021-07-11T12:51:11.759Z</time>
      </trkpt>
      <trkpt lat="42.97724" lon="-0.87133">
        <ele>1240.6</ele>
        <time>2021-07-11T12:51:23.511Z</time>
      </trkpt>
      <trkpt lat="42.97727" lon="-0.87145">
        <ele>1239.1</ele>
        <time>2021-07-11T12:51:25.277Z</time>
      </trkpt>
      <trkpt lat="42.97743" lon="-0.87152">
        <ele>1232.6</ele>
        <time>2021-07-11T12:51:28.476Z</time>
      </trkpt>
      <trkpt lat="42.97755" lon="-0.87193">
        <ele>1224.9</ele>
        <time>2021-07-11T12:51:34.626Z</time>
      </trkpt>
      <trkpt lat="42.97757" lon="-0.87206">
        <ele>1223.1</ele>
        <time>2021-07-11T12:51:36.476Z</time>
      </trkpt>
      <trkpt lat="42.97752" lon="-0.87222">
        <ele>1224.7</ele>
        <time>2021-07-11T12:52:10.457Z</time>
      </trkpt>
      <trkpt lat="42.9775" lon="-0.87256">
        <ele>1223.5</ele>
        <time>2021-07-11T12:52:15.523Z</time>
      </trkpt>
      <trkpt lat="42.97751" lon="-0.87285">
        <ele>1220.6</ele>
        <time>2021-07-11T12:52:19.566Z</time>
      </trkpt>
      <trkpt lat="42.97758" lon="-0.87306">
        <ele>1216.3</ele>
        <time>2021-07-11T12:52:22.781Z</time>
      </trkpt>
      <trkpt lat="42.97757" lon="-0.87333">
        <ele>1214.8</ele>
        <time>2021-07-11T12:52:26.546Z</time>
      </trkpt>
      <trkpt lat="42.97744" lon="-0.8737">
        <ele>1224</ele>
        <time>2021-07-11T12:53:55.677Z</time>
      </trkpt>
      <trkpt lat="42.97742" lon="-0.87381">
        <ele>1226.1</ele>
        <time>2021-07-11T12:54:20.290Z</time>
      </trkpt>
      <trkpt lat="42.97746" lon="-0.87388">
        <ele>1225.2</ele>
        <time>2021-07-11T12:54:21.528Z</time>
      </trkpt>
      <trkpt lat="42.97759" lon="-0.87391">
        <ele>1220.9</ele>
        <time>2021-07-11T12:54:24.037Z</time>
      </trkpt>
      <trkpt lat="42.97787" lon="-0.87374">
        <ele>1209.7</ele>
        <time>2021-07-11T12:54:29.870Z</time>
      </trkpt>
      <trkpt lat="42.97801" lon="-0.87374">
        <ele>1205.1</ele>
        <time>2021-07-11T12:54:32.535Z</time>
      </trkpt>
      <trkpt lat="42.97812" lon="-0.87393">
        <ele>1203.5</ele>
        <time>2021-07-11T12:54:35.910Z</time>
      </trkpt>
      <trkpt lat="42.9783" lon="-0.87417">
        <ele>1200.2</ele>
        <time>2021-07-11T12:54:40.697Z</time>
      </trkpt>
      <trkpt lat="42.97852" lon="-0.87431">
        <ele>1202.7</ele>
        <time>2021-07-11T12:55:30.730Z</time>
      </trkpt>
      <trkpt lat="42.97863" lon="-0.87453">
        <ele>1208.1</ele>
        <time>2021-07-11T12:56:28.594Z</time>
      </trkpt>
      <trkpt lat="42.97877" lon="-0.87475">
        <ele>1212.7</ele>
        <time>2021-07-11T12:57:31.910Z</time>
      </trkpt>
      <trkpt lat="42.97882" lon="-0.87478">
        <ele>1212.9</ele>
        <time>2021-07-11T12:57:38.233Z</time>
      </trkpt>
      <trkpt lat="42.97892" lon="-0.87485">
        <ele>1213.6</ele>
        <time>2021-07-11T12:57:54.676Z</time>
      </trkpt>
      <trkpt lat="42.97906" lon="-0.87478">
        <ele>1210.8</ele>
        <time>2021-07-11T12:57:57.514Z</time>
      </trkpt>
      <trkpt lat="42.97914" lon="-0.87438">
        <ele>1202.2</ele>
        <time>2021-07-11T12:58:03.289Z</time>
      </trkpt>
      <trkpt lat="42.97929" lon="-0.87416">
        <ele>1204.1</ele>
        <time>2021-07-11T12:58:42.150Z</time>
      </trkpt>
      <trkpt lat="42.97922" lon="-0.87364">
        <ele>1191</ele>
        <time>2021-07-11T12:58:49.514Z</time>
      </trkpt>
      <trkpt lat="42.97935" lon="-0.87348">
        <ele>1194.2</ele>
        <time>2021-07-11T12:59:41.436Z</time>
      </trkpt>
      <trkpt lat="42.97934" lon="-0.87324">
        <ele>1188.7</ele>
        <time>2021-07-11T12:59:44.784Z</time>
      </trkpt>
      <trkpt lat="42.97961" lon="-0.8728">
        <ele>1188.3</ele>
        <time>2021-07-11T12:59:57.710Z</time>
      </trkpt>
      <trkpt lat="42.97969" lon="-0.87242">
        <ele>1180.5</ele>
        <time>2021-07-11T13:00:03.218Z</time>
      </trkpt>
      <trkpt lat="42.98007" lon="-0.87126">
        <ele>1158.7</ele>
        <time>2021-07-11T13:00:20.919Z</time>
      </trkpt>
      <trkpt lat="42.9803" lon="-0.87098">
        <ele>1161.5</ele>
        <time>2021-07-11T13:01:17.537Z</time>
      </trkpt>
      <trkpt lat="42.98034" lon="-0.87071">
        <ele>1155.5</ele>
        <time>2021-07-11T13:01:21.374Z</time>
      </trkpt>
      <trkpt lat="42.9808" lon="-0.86969">
        <ele>1144.9</ele>
        <time>2021-07-11T13:01:38.062Z</time>
      </trkpt>
      <trkpt lat="42.98106" lon="-0.86895">
        <ele>1141.3</ele>
        <time>2021-07-11T13:01:49.098Z</time>
      </trkpt>
      <trkpt lat="42.98111" lon="-0.86857">
        <ele>1135.8</ele>
        <time>2021-07-11T13:01:54.475Z</time>
      </trkpt>
      <trkpt lat="42.98117" lon="-0.86763">
        <ele>1119.8</ele>
        <time>2021-07-11T13:02:07.616Z</time>
      </trkpt>
      <trkpt lat="42.98152" lon="-0.86619">
        <ele>1103.4</ele>
        <time>2021-07-11T13:02:28.749Z</time>
      </trkpt>
      <trkpt lat="42.9817" lon="-0.86594">
        <ele>1104.4</ele>
        <time>2021-07-11T13:02:59.457Z</time>
      </trkpt>
      <trkpt lat="42.98193" lon="-0.86522">
        <ele>1092.1</ele>
        <time>2021-07-11T13:03:10.398Z</time>
      </trkpt>
      <trkpt lat="42.98215" lon="-0.86429">
        <ele>1071.6</ele>
        <time>2021-07-11T13:03:24.011Z</time>
      </trkpt>
      <trkpt lat="42.98216" lon="-0.86372">
        <ele>1052.2</ele>
        <time>2021-07-11T13:03:31.951Z</time>
      </trkpt>
      <trkpt lat="42.98219" lon="-0.86368">
        <ele>1052.3</ele>
        <time>2021-07-11T13:03:36.078Z</time>
      </trkpt>
      <trkpt lat="42.98248" lon="-0.86333">
        <ele>1053.9</ele>
        <time>2021-07-11T13:04:24.003Z</time>
      </trkpt>
      <trkpt lat="42.98281" lon="-0.8632">
        <ele>1048.1</ele>
        <time>2021-07-11T13:04:30.541Z</time>
      </trkpt>
      <trkpt lat="42.98308" lon="-0.86317">
        <ele>1046.4</ele>
        <time>2021-07-11T13:04:35.409Z</time>
      </trkpt>
      <trkpt lat="42.98336" lon="-0.86345">
        <ele>1057.2</ele>
        <time>2021-07-11T13:06:18.380Z</time>
      </trkpt>
      <trkpt lat="42.98348" lon="-0.86351">
        <ele>1060.6</ele>
        <time>2021-07-11T13:06:56.305Z</time>
      </trkpt>
      <trkpt lat="42.98376" lon="-0.86335">
        <ele>1055.8</ele>
        <time>2021-07-11T13:07:02.083Z</time>
      </trkpt>
      <trkpt lat="42.98426" lon="-0.86287">
        <ele>1042.3</ele>
        <time>2021-07-11T13:07:13.714Z</time>
      </trkpt>
      <trkpt lat="42.98448" lon="-0.86227">
        <ele>1023.3</ele>
        <time>2021-07-11T13:07:23.061Z</time>
      </trkpt>
      <trkpt lat="42.98476" lon="-0.86177">
        <ele>1007</ele>
        <time>2021-07-11T13:07:31.830Z</time>
      </trkpt>
      <trkpt lat="42.98505" lon="-0.86193">
        <ele>1015.9</ele>
        <time>2021-07-11T13:09:04.651Z</time>
      </trkpt>
      <trkpt lat="42.98571" lon="-0.86217">
        <ele>1012.5</ele>
        <time>2021-07-11T13:09:18.309Z</time>
      </trkpt>
      <trkpt lat="42.9859" lon="-0.86233">
        <ele>1012.5</ele>
        <time>2021-07-11T13:09:35.481Z</time>
      </trkpt>
      <trkpt lat="42.98598" lon="-0.86222">
        <ele>1006.3</ele>
        <time>2021-07-11T13:09:37.642Z</time>
      </trkpt>
      <trkpt lat="42.98581" lon="-0.862">
        <ele>1005.4</ele>
        <time>2021-07-11T13:09:42.835Z</time>
      </trkpt>
      <trkpt lat="42.98576" lon="-0.86184">
        <ele>1001.3</ele>
        <time>2021-07-11T13:09:45.258Z</time>
      </trkpt>
      <trkpt lat="42.98569" lon="-0.8614">
        <ele>989</ele>
        <time>2021-07-11T13:09:51.529Z</time>
      </trkpt>
      <trkpt lat="42.98569" lon="-0.86128">
        <ele>985.5</ele>
        <time>2021-07-11T13:09:53.200Z</time>
      </trkpt>
      <trkpt lat="42.98565" lon="-0.86115">
        <ele>982.1</ele>
        <time>2021-07-11T13:09:55.164Z</time>
      </trkpt>
      <trkpt lat="42.98566" lon="-0.86095">
        <ele>976.1</ele>
        <time>2021-07-11T13:09:57.955Z</time>
      </trkpt>
      <trkpt lat="42.9856" lon="-0.86069">
        <ele>968.6</ele>
        <time>2021-07-11T13:10:01.752Z</time>
      </trkpt>
      <trkpt lat="42.9856" lon="-0.86035">
        <ele>957.7</ele>
        <time>2021-07-11T13:10:06.487Z</time>
      </trkpt>
      <trkpt lat="42.98563" lon="-0.86024">
        <ele>953.9</ele>
        <time>2021-07-11T13:10:08.122Z</time>
      </trkpt>
      <trkpt lat="42.98561" lon="-0.8601">
        <ele>949.6</ele>
        <time>2021-07-11T13:10:10.108Z</time>
      </trkpt>
      <trkpt lat="42.98573" lon="-0.85959">
        <ele>935.5</ele>
        <time>2021-07-11T13:10:17.569Z</time>
      </trkpt>
      <trkpt lat="42.98589" lon="-0.85927">
        <ele>926</ele>
        <time>2021-07-11T13:10:22.967Z</time>
      </trkpt>
      <trkpt lat="42.98599" lon="-0.85911">
        <ele>919.7</ele>
        <time>2021-07-11T13:10:25.898Z</time>
      </trkpt>
      <trkpt lat="42.98616" lon="-0.85907">
        <ele>914.6</ele>
        <time>2021-07-11T13:10:29.181Z</time>
      </trkpt>
      <trkpt lat="42.98626" lon="-0.85899">
        <ele>910.7</ele>
        <time>2021-07-11T13:10:31.387Z</time>
      </trkpt>
      <trkpt lat="42.9863" lon="-0.85891">
        <ele>908.4</ele>
        <time>2021-07-11T13:10:32.737Z</time>
      </trkpt>
      <trkpt lat="42.98632" lon="-0.8589">
        <ele>907.8</ele>
        <time>2021-07-11T13:10:33.142Z</time>
      </trkpt>
      <trkpt lat="42.98642" lon="-0.85882">
        <ele>904.2</ele>
        <time>2021-07-11T13:10:35.348Z</time>
      </trkpt>
      <trkpt lat="42.98653" lon="-0.85881">
        <ele>901.7</ele>
        <time>2021-07-11T13:10:37.446Z</time>
      </trkpt>
      <trkpt lat="42.98666" lon="-0.85885">
        <ele>899.3</ele>
        <time>2021-07-11T13:10:39.983Z</time>
      </trkpt>
      <trkpt lat="42.98678" lon="-0.859">
        <ele>895.9</ele>
        <time>2021-07-11T13:10:43.079Z</time>
      </trkpt>
      <trkpt lat="42.98682" lon="-0.85902">
        <ele>894.3</ele>
        <time>2021-07-11T13:10:43.889Z</time>
      </trkpt>
      <trkpt lat="42.98712" lon="-0.85937">
        <ele>887.7</ele>
        <time>2021-07-11T13:10:51.398Z</time>
      </trkpt>
      <trkpt lat="42.98734" lon="-0.85948">
        <ele>880.8</ele>
        <time>2021-07-11T13:10:55.857Z</time>
      </trkpt>
      <trkpt lat="42.9875" lon="-0.85952">
        <ele>874.9</ele>
        <time>2021-07-11T13:10:58.954Z</time>
      </trkpt>
      <trkpt lat="42.98759" lon="-0.8596">
        <ele>873.3</ele>
        <time>2021-07-11T13:11:00.997Z</time>
      </trkpt>
      <trkpt lat="42.98767" lon="-0.85959">
        <ele>869.8</ele>
        <time>2021-07-11T13:11:02.527Z</time>
      </trkpt>
      <trkpt lat="42.98785" lon="-0.85966">
        <ele>864.2</ele>
        <time>2021-07-11T13:11:06.089Z</time>
      </trkpt>
      <trkpt lat="42.98788" lon="-0.85974">
        <ele>864.7</ele>
        <time>2021-07-11T13:11:16.757Z</time>
      </trkpt>
      <trkpt lat="42.98801" lon="-0.85994">
        <ele>863.7</ele>
        <time>2021-07-11T13:11:20.627Z</time>
      </trkpt>
      <trkpt lat="42.9881" lon="-0.86011">
        <ele>863.1</ele>
        <time>2021-07-11T13:11:24.012Z</time>
      </trkpt>
      <trkpt lat="42.98819" lon="-0.86034">
        <ele>863.3</ele>
        <time>2021-07-11T13:11:40.254Z</time>
      </trkpt>
      <trkpt lat="42.98841" lon="-0.86049">
        <ele>857.2</ele>
        <time>2021-07-11T13:11:44.934Z</time>
      </trkpt>
      <trkpt lat="42.98857" lon="-0.86067">
        <ele>855.7</ele>
        <time>2021-07-11T13:11:48.879Z</time>
      </trkpt>
      <trkpt lat="42.98866" lon="-0.8607">
        <ele>853.6</ele>
        <time>2021-07-11T13:11:50.642Z</time>
      </trkpt>
      <trkpt lat="42.98875" lon="-0.86069">
        <ele>850.9</ele>
        <time>2021-07-11T13:11:52.361Z</time>
      </trkpt>
      <trkpt lat="42.98886" lon="-0.86063">
        <ele>847</ele>
        <time>2021-07-11T13:11:54.616Z</time>
      </trkpt>
      <trkpt lat="42.98895" lon="-0.86063">
        <ele>844.5</ele>
        <time>2021-07-11T13:11:56.329Z</time>
      </trkpt>
      <trkpt lat="42.98908" lon="-0.86051">
        <ele>839.5</ele>
        <time>2021-07-11T13:11:59.315Z</time>
      </trkpt>
      <trkpt lat="42.98916" lon="-0.86048">
        <ele>836.9</ele>
        <time>2021-07-11T13:12:00.894Z</time>
      </trkpt>
      <trkpt lat="42.98927" lon="-0.86049">
        <ele>839</ele>
        <time>2021-07-11T13:12:33.616Z</time>
      </trkpt>
      <trkpt lat="42.98934" lon="-0.86051">
        <ele>840.7</ele>
        <time>2021-07-11T13:12:54.841Z</time>
      </trkpt>
      <trkpt lat="42.98937" lon="-0.86055">
        <ele>841.7</ele>
        <time>2021-07-11T13:13:07.279Z</time>
      </trkpt>
      <trkpt lat="42.9894" lon="-0.86071">
        <ele>843.8</ele>
        <time>2021-07-11T13:13:43.140Z</time>
      </trkpt>
      <trkpt lat="42.98947" lon="-0.86079">
        <ele>845.7</ele>
        <time>2021-07-11T13:14:10.220Z</time>
      </trkpt>
      <trkpt lat="42.9895" lon="-0.86075">
        <ele>845.9</ele>
        <time>2021-07-11T13:14:15.776Z</time>
      </trkpt>
      <trkpt lat="42.98957" lon="-0.86048">
        <ele>845.2</ele>
        <time>2021-07-11T13:14:20.662Z</time>
      </trkpt>
      <trkpt lat="42.98958" lon="-0.85996">
        <ele>842.1</ele>
        <time>2021-07-11T13:14:27.906Z</time>
      </trkpt>
      <trkpt lat="42.98946" lon="-0.85952">
        <ele>840.1</ele>
        <time>2021-07-11T13:14:34.306Z</time>
      </trkpt>
      <trkpt lat="42.98936" lon="-0.85936">
        <ele>837.6</ele>
        <time>2021-07-11T13:14:37.236Z</time>
      </trkpt>
      <trkpt lat="42.9893" lon="-0.85913">
        <ele>836.1</ele>
        <time>2021-07-11T13:14:40.637Z</time>
      </trkpt>
      <trkpt lat="42.98923" lon="-0.859">
        <ele>833.9</ele>
        <time>2021-07-11T13:14:42.884Z</time>
      </trkpt>
      <trkpt lat="42.98912" lon="-0.85854">
        <ele>831.5</ele>
        <time>2021-07-11T13:14:49.624Z</time>
      </trkpt>
      <trkpt lat="42.9891" lon="-0.85839">
        <ele>831.1</ele>
        <time>2021-07-11T13:14:52.161Z</time>
      </trkpt>
      <trkpt lat="42.98908" lon="-0.85835">
        <ele>830.8</ele>
        <time>2021-07-11T13:14:52.836Z</time>
      </trkpt>
      <trkpt lat="42.98904" lon="-0.85807">
        <ele>827.6</ele>
        <time>2021-07-11T13:14:56.809Z</time>
      </trkpt>
      <trkpt lat="42.98911" lon="-0.85762">
        <ele>824.3</ele>
        <time>2021-07-11T13:15:03.215Z</time>
      </trkpt>
      <trkpt lat="42.98926" lon="-0.85709">
        <ele>821.4</ele>
        <time>2021-07-11T13:15:11.129Z</time>
      </trkpt>
      <trkpt lat="42.9893" lon="-0.85685">
        <ele>819.7</ele>
        <time>2021-07-11T13:15:14.556Z</time>
      </trkpt>
      <trkpt lat="42.98929" lon="-0.85632">
        <ele>815.3</ele>
        <time>2021-07-11T13:15:21.939Z</time>
      </trkpt>
      <trkpt lat="42.98931" lon="-0.85593">
        <ele>813.6</ele>
        <time>2021-07-11T13:15:27.215Z</time>
      </trkpt>
      <trkpt lat="42.98932" lon="-0.85563">
        <ele>813</ele>
        <time>2021-07-11T13:15:32.675Z</time>
      </trkpt>
      <trkpt lat="42.9893" lon="-0.85553">
        <ele>812.2</ele>
        <time>2021-07-11T13:15:34.119Z</time>
      </trkpt>
      <trkpt lat="42.9893" lon="-0.85535">
        <ele>812</ele>
        <time>2021-07-11T13:15:37.884Z</time>
      </trkpt>
      <trkpt lat="42.98928" lon="-0.85506">
        <ele>811.1</ele>
        <time>2021-07-11T13:15:42.444Z</time>
      </trkpt>
      <trkpt lat="42.98929" lon="-0.8546">
        <ele>811.7</ele>
        <time>2021-07-11T13:16:13.402Z</time>
      </trkpt>
      <trkpt lat="42.98932" lon="-0.85442">
        <ele>812.3</ele>
        <time>2021-07-11T13:16:30.925Z</time>
      </trkpt>
      <trkpt lat="42.98933" lon="-0.8544">
        <ele>812.5</ele>
        <time>2021-07-11T13:16:34.980Z</time>
      </trkpt>
      <trkpt lat="42.98933" lon="-0.85436">
        <ele>812.5</ele>
        <time>2021-07-11T13:16:37.231Z</time>
      </trkpt>
      <trkpt lat="42.98932" lon="-0.85432">
        <ele>812.4</ele>
        <time>2021-07-11T13:16:37.960Z</time>
      </trkpt>
      <trkpt lat="42.98932" lon="-0.85426">
        <ele>812.4</ele>
        <time>2021-07-11T13:16:41.337Z</time>
      </trkpt>
      <trkpt lat="42.98934" lon="-0.85415">
        <ele>812.5</ele>
        <time>2021-07-11T13:16:48.510Z</time>
      </trkpt>
      <trkpt lat="42.98942" lon="-0.85399">
        <ele>811.5</ele>
        <time>2021-07-11T13:16:51.209Z</time>
      </trkpt>
      <trkpt lat="42.98957" lon="-0.85376">
        <ele>809.4</ele>
        <time>2021-07-11T13:16:55.499Z</time>
      </trkpt>
      <trkpt lat="42.98962" lon="-0.85371">
        <ele>808.7</ele>
        <time>2021-07-11T13:16:56.679Z</time>
      </trkpt>
      <trkpt lat="42.98972" lon="-0.85362">
        <ele>807.4</ele>
        <time>2021-07-11T13:16:58.958Z</time>
      </trkpt>
      <trkpt lat="42.98985" lon="-0.8534">
        <ele>803.2</ele>
        <time>2021-07-11T13:17:02.896Z</time>
      </trkpt>
      <trkpt lat="42.98988" lon="-0.85327">
        <ele>800.2</ele>
        <time>2021-07-11T13:17:04.795Z</time>
      </trkpt>
      <trkpt lat="42.98986" lon="-0.85315">
        <ele>797.6</ele>
        <time>2021-07-11T13:17:06.508Z</time>
      </trkpt>
      <trkpt lat="42.98944" lon="-0.8524">
        <ele>784.5</ele>
        <time>2021-07-11T13:17:19.661Z</time>
      </trkpt>
      <trkpt lat="42.98929" lon="-0.85218">
        <ele>780.1</ele>
        <time>2021-07-11T13:17:23.849Z</time>
      </trkpt>
      <trkpt lat="42.9893" lon="-0.85216">
        <ele>779.5</ele>
        <time>2021-07-11T13:17:24.187Z</time>
      </trkpt>
      <trkpt lat="42.9894" lon="-0.85216">
        <ele>778.7</ele>
        <time>2021-07-11T13:17:26.091Z</time>
      </trkpt>
      <trkpt lat="42.98961" lon="-0.85213">
        <ele>776.2</ele>
        <time>2021-07-11T13:17:30.110Z</time>
      </trkpt>
      <trkpt lat="42.98975" lon="-0.85202">
        <ele>772.5</ele>
        <time>2021-07-11T13:17:33.184Z</time>
      </trkpt>
      <trkpt lat="42.99016" lon="-0.85198">
        <ele>765.6</ele>
        <time>2021-07-11T13:17:41.009Z</time>
      </trkpt>
      <trkpt lat="42.99041" lon="-0.852">
        <ele>759.4</ele>
        <time>2021-07-11T13:17:45.777Z</time>
      </trkpt>
      <trkpt lat="42.99077" lon="-0.85199">
        <ele>749.7</ele>
        <time>2021-07-11T13:17:52.631Z</time>
      </trkpt>
      <trkpt lat="42.9912" lon="-0.85205">
        <ele>741.6</ele>
        <time>2021-07-11T13:18:00.860Z</time>
      </trkpt>
      <trkpt lat="42.99133" lon="-0.85212">
        <ele>739.8</ele>
        <time>2021-07-11T13:18:03.520Z</time>
      </trkpt>
      <trkpt lat="42.9914" lon="-0.85227">
        <ele>739.9</ele>
        <time>2021-07-11T13:18:14.293Z</time>
      </trkpt>
      <trkpt lat="42.99146" lon="-0.85233">
        <ele>739.2</ele>
        <time>2021-07-11T13:18:15.708Z</time>
      </trkpt>
      <trkpt lat="42.9916" lon="-0.85232">
        <ele>736</ele>
        <time>2021-07-11T13:18:18.377Z</time>
      </trkpt>
      <trkpt lat="42.99176" lon="-0.85218">
        <ele>732.4</ele>
        <time>2021-07-11T13:18:21.993Z</time>
      </trkpt>
      <trkpt lat="42.99185" lon="-0.85215">
        <ele>731.3</ele>
        <time>2021-07-11T13:18:23.757Z</time>
      </trkpt>
      <trkpt lat="42.99219" lon="-0.85222">
        <ele>729</ele>
        <time>2021-07-11T13:18:30.302Z</time>
      </trkpt>
      <trkpt lat="42.99229" lon="-0.8522">
        <ele>727.8</ele>
        <time>2021-07-11T13:18:32.226Z</time>
      </trkpt>
      <trkpt lat="42.99237" lon="-0.85212">
        <ele>725.6</ele>
        <time>2021-07-11T13:18:34.113Z</time>
      </trkpt>
      <trkpt lat="42.99249" lon="-0.8519">
        <ele>719.9</ele>
        <time>2021-07-11T13:18:37.934Z</time>
      </trkpt>
      <trkpt lat="42.99284" lon="-0.85137">
        <ele>710</ele>
        <time>2021-07-11T13:18:47.877Z</time>
      </trkpt>
      <trkpt lat="42.99312" lon="-0.85112">
        <ele>704.2</ele>
        <time>2021-07-11T13:18:54.244Z</time>
      </trkpt>
      <trkpt lat="42.99332" lon="-0.851">
        <ele>701</ele>
        <time>2021-07-11T13:18:58.402Z</time>
      </trkpt>
      <trkpt lat="42.99374" lon="-0.85084">
        <ele>693.3</ele>
        <time>2021-07-11T13:19:06.702Z</time>
      </trkpt>
      <trkpt lat="42.99405" lon="-0.85063">
        <ele>686.5</ele>
        <time>2021-07-11T13:19:13.288Z</time>
      </trkpt>
      <trkpt lat="42.99409" lon="-0.8505">
        <ele>683.5</ele>
        <time>2021-07-11T13:19:15.252Z</time>
      </trkpt>
      <trkpt lat="42.99415" lon="-0.8505">
        <ele>683.3</ele>
        <time>2021-07-11T13:19:16.652Z</time>
      </trkpt>
      <trkpt lat="42.99506" lon="-0.85079">
        <ele>673.1</ele>
        <time>2021-07-11T13:19:34.440Z</time>
      </trkpt>
      <trkpt lat="42.99538" lon="-0.85067">
        <ele>665.1</ele>
        <time>2021-07-11T13:19:40.757Z</time>
      </trkpt>
      <trkpt lat="42.99549" lon="-0.85073">
        <ele>664</ele>
        <time>2021-07-11T13:19:43.011Z</time>
      </trkpt>
      <trkpt lat="42.99571" lon="-0.85101">
        <ele>664.3</ele>
        <time>2021-07-11T13:20:08.467Z</time>
      </trkpt>
      <trkpt lat="42.99581" lon="-0.85106">
        <ele>662.8</ele>
        <time>2021-07-11T13:20:10.494Z</time>
      </trkpt>
      <trkpt lat="42.9959" lon="-0.85099">
        <ele>660.3</ele>
        <time>2021-07-11T13:20:12.466Z</time>
      </trkpt>
      <trkpt lat="42.9959" lon="-0.85093">
        <ele>659.5</ele>
        <time>2021-07-11T13:20:13.301Z</time>
      </trkpt>
      <trkpt lat="42.9958" lon="-0.85068">
        <ele>657.6</ele>
        <time>2021-07-11T13:20:17.269Z</time>
      </trkpt>
      <trkpt lat="42.99579" lon="-0.85037">
        <ele>653.6</ele>
        <time>2021-07-11T13:20:21.589Z</time>
      </trkpt>
      <trkpt lat="42.99583" lon="-0.84948">
        <ele>644.3</ele>
        <time>2021-07-11T13:20:34.005Z</time>
      </trkpt>
      <trkpt lat="42.99583" lon="-0.84932">
        <ele>643.1</ele>
        <time>2021-07-11T13:20:36.232Z</time>
      </trkpt>
      <trkpt lat="42.9957" lon="-0.84913">
        <ele>642.8</ele>
        <time>2021-07-11T13:20:41.636Z</time>
      </trkpt>
      <trkpt lat="42.99531" lon="-0.84881">
        <ele>642.3</ele>
        <time>2021-07-11T13:20:55.359Z</time>
      </trkpt>
      <trkpt lat="42.99503" lon="-0.84846">
        <ele>641.2</ele>
        <time>2021-07-11T13:21:04.620Z</time>
      </trkpt>
      <trkpt lat="42.99497" lon="-0.84825">
        <ele>639.3</ele>
        <time>2021-07-11T13:21:07.759Z</time>
      </trkpt>
      <trkpt lat="42.99499" lon="-0.84806">
        <ele>637.3</ele>
        <time>2021-07-11T13:21:10.432Z</time>
      </trkpt>
      <trkpt lat="42.99498" lon="-0.84778">
        <ele>634.5</ele>
        <time>2021-07-11T13:21:14.335Z</time>
      </trkpt>
      <trkpt lat="42.99491" lon="-0.84752">
        <ele>630.8</ele>
        <time>2021-07-11T13:21:18.193Z</time>
      </trkpt>
      <trkpt lat="42.99493" lon="-0.84739">
        <ele>627.7</ele>
        <time>2021-07-11T13:21:20.043Z</time>
      </trkpt>
      <trkpt lat="42.99504" lon="-0.84735">
        <ele>627.1</ele>
        <time>2021-07-11T13:21:22.263Z</time>
      </trkpt>
      <trkpt lat="42.9953" lon="-0.84762">
        <ele>625.4</ele>
        <time>2021-07-11T13:21:28.665Z</time>
      </trkpt>
      <trkpt lat="42.99537" lon="-0.84787">
        <ele>627.3</ele>
        <time>2021-07-11T13:22:06.747Z</time>
      </trkpt>
      <trkpt lat="42.99547" lon="-0.84798">
        <ele>626.9</ele>
        <time>2021-07-11T13:22:09.810Z</time>
      </trkpt>
      <trkpt lat="42.99563" lon="-0.84802">
        <ele>624.3</ele>
        <time>2021-07-11T13:22:12.906Z</time>
      </trkpt>
      <trkpt lat="42.99587" lon="-0.84802">
        <ele>619.7</ele>
        <time>2021-07-11T13:22:17.475Z</time>
      </trkpt>
      <trkpt lat="42.99609" lon="-0.84812">
        <ele>618.3</ele>
        <time>2021-07-11T13:22:21.720Z</time>
      </trkpt>
      <trkpt lat="42.99644" lon="-0.84803">
        <ele>611.1</ele>
        <time>2021-07-11T13:22:28.500Z</time>
      </trkpt>
      <trkpt lat="42.99663" lon="-0.84802">
        <ele>607.9</ele>
        <time>2021-07-11T13:22:32.120Z</time>
      </trkpt>
      <trkpt lat="42.99671" lon="-0.84796">
        <ele>605.7</ele>
        <time>2021-07-11T13:22:33.857Z</time>
      </trkpt>
      <trkpt lat="42.99676" lon="-0.84776">
        <ele>601.4</ele>
        <time>2021-07-11T13:22:36.800Z</time>
      </trkpt>
      <trkpt lat="42.99682" lon="-0.84761">
        <ele>597.9</ele>
        <time>2021-07-11T13:22:39.180Z</time>
      </trkpt>
      <trkpt lat="42.99689" lon="-0.84755">
        <ele>595.9</ele>
        <time>2021-07-11T13:22:40.753Z</time>
      </trkpt>
      <trkpt lat="42.99691" lon="-0.84753">
        <ele>595.3</ele>
        <time>2021-07-11T13:22:41.225Z</time>
      </trkpt>
      <trkpt lat="42.99706" lon="-0.84753">
        <ele>593.3</ele>
        <time>2021-07-11T13:22:44.080Z</time>
      </trkpt>
      <trkpt lat="42.99708" lon="-0.84753">
        <ele>593.1</ele>
        <time>2021-07-11T13:22:44.461Z</time>
      </trkpt>
      <trkpt lat="42.99733" lon="-0.84779">
        <ele>594.2</ele>
        <time>2021-07-11T13:23:20.047Z</time>
      </trkpt>
      <trkpt lat="42.99777" lon="-0.84804">
        <ele>588.4</ele>
        <time>2021-07-11T13:23:29.117Z</time>
      </trkpt>
      <trkpt lat="42.99795" lon="-0.84849">
        <ele>588.3</ele>
        <time>2021-07-11T13:23:56.851Z</time>
      </trkpt>
      <trkpt lat="42.99791" lon="-0.84884">
        <ele>593.8</ele>
        <time>2021-07-11T13:25:13.751Z</time>
      </trkpt>
      <trkpt lat="42.99796" lon="-0.84911">
        <ele>595.5</ele>
        <time>2021-07-11T13:25:48.854Z</time>
      </trkpt>
      <trkpt lat="42.99802" lon="-0.84924">
        <ele>595.4</ele>
        <time>2021-07-11T13:25:52.343Z</time>
      </trkpt>
      <trkpt lat="42.99828" lon="-0.84921">
        <ele>587.3</ele>
        <time>2021-07-11T13:25:57.310Z</time>
      </trkpt>
      <trkpt lat="42.99847" lon="-0.84933">
        <ele>585.6</ele>
        <time>2021-07-11T13:26:01.294Z</time>
      </trkpt>
      <trkpt lat="42.99898" lon="-0.84947">
        <ele>579.7</ele>
        <time>2021-07-11T13:26:11.197Z</time>
      </trkpt>
      <trkpt lat="42.99914" lon="-0.84955">
        <ele>578</ele>
        <time>2021-07-11T13:26:14.440Z</time>
      </trkpt>
      <trkpt lat="42.99923" lon="-0.84966">
        <ele>577.6</ele>
        <time>2021-07-11T13:26:17.263Z</time>
      </trkpt>
      <trkpt lat="42.99933" lon="-0.84984">
        <ele>577.5</ele>
        <time>2021-07-11T13:26:28.905Z</time>
      </trkpt>
      <trkpt lat="42.99953" lon="-0.85047">
        <ele>577</ele>
        <time>2021-07-11T13:26:44.269Z</time>
      </trkpt>
      <trkpt lat="42.99971" lon="-0.85063">
        <ele>573.6</ele>
        <time>2021-07-11T13:26:48.356Z</time>
      </trkpt>
      <trkpt lat="42.99976" lon="-0.85083">
        <ele>573.5</ele>
        <time>2021-07-11T13:26:59.179Z</time>
      </trkpt>
      <trkpt lat="42.99974" lon="-0.85115">
        <ele>573.9</ele>
        <time>2021-07-11T13:27:20.594Z</time>
      </trkpt>
      <trkpt lat="42.99971" lon="-0.85133">
        <ele>574.6</ele>
        <time>2021-07-11T13:27:38.983Z</time>
      </trkpt>
      <trkpt lat="42.99972" lon="-0.85139">
        <ele>574.4</ele>
        <time>2021-07-11T13:27:39.927Z</time>
      </trkpt>
      <trkpt lat="42.99975" lon="-0.85145">
        <ele>573.6</ele>
        <time>2021-07-11T13:27:40.939Z</time>
      </trkpt>
      <trkpt lat="42.99982" lon="-0.85141">
        <ele>571.9</ele>
        <time>2021-07-11T13:27:42.384Z</time>
      </trkpt>
      <trkpt lat="42.99987" lon="-0.85128">
        <ele>570.7</ele>
        <time>2021-07-11T13:27:44.429Z</time>
      </trkpt>
      <trkpt lat="43.00003" lon="-0.85071">
        <ele>566.3</ele>
        <time>2021-07-11T13:27:52.929Z</time>
      </trkpt>
      <trkpt lat="43.00006" lon="-0.85031">
        <ele>563.3</ele>
        <time>2021-07-11T13:27:58.527Z</time>
      </trkpt>
      <trkpt lat="43.0001" lon="-0.85024">
        <ele>561.6</ele>
        <time>2021-07-11T13:27:59.764Z</time>
      </trkpt>
      <trkpt lat="43.00016" lon="-0.85023">
        <ele>559.3</ele>
        <time>2021-07-11T13:28:00.915Z</time>
      </trkpt>
      <trkpt lat="43.0002" lon="-0.85029">
        <ele>558.2</ele>
        <time>2021-07-11T13:28:02.045Z</time>
      </trkpt>
      <trkpt lat="43.00023" lon="-0.85038">
        <ele>557.5</ele>
        <time>2021-07-11T13:28:03.422Z</time>
      </trkpt>
      <trkpt lat="43.00033" lon="-0.85084">
        <ele>556.2</ele>
        <time>2021-07-11T13:28:11.316Z</time>
      </trkpt>
      <trkpt lat="43.00037" lon="-0.85079">
        <ele>554.5</ele>
        <time>2021-07-11T13:28:12.347Z</time>
      </trkpt>
      <trkpt lat="43.00044" lon="-0.8501">
        <ele>548.6</ele>
        <time>2021-07-11T13:28:22.046Z</time>
      </trkpt>
      <trkpt lat="43.00052" lon="-0.84958">
        <ele>542.9</ele>
        <time>2021-07-11T13:28:29.444Z</time>
      </trkpt>
      <trkpt lat="43.00064" lon="-0.84896">
        <ele>534</ele>
        <time>2021-07-11T13:28:38.374Z</time>
      </trkpt>
      <trkpt lat="43.00074" lon="-0.84817">
        <ele>520.5</ele>
        <time>2021-07-11T13:28:49.536Z</time>
      </trkpt>
      <trkpt lat="43.00062" lon="-0.84806">
        <ele>521.1</ele>
        <time>2021-07-11T13:29:07.479Z</time>
      </trkpt>
      <trkpt lat="43.00044" lon="-0.8481">
        <ele>526.4</ele>
        <time>2021-07-11T13:30:01.606Z</time>
      </trkpt>
      <trkpt lat="43.00035" lon="-0.84802">
        <ele>527.2</ele>
        <time>2021-07-11T13:30:18.815Z</time>
      </trkpt>
      <trkpt lat="43.00027" lon="-0.84778">
        <ele>524.9</ele>
        <time>2021-07-11T13:30:22.487Z</time>
      </trkpt>
      <trkpt lat="43.00025" lon="-0.84753">
        <ele>521</ele>
        <time>2021-07-11T13:30:25.988Z</time>
      </trkpt>
      <trkpt lat="43.00027" lon="-0.84731">
        <ele>516.7</ele>
        <time>2021-07-11T13:30:29.075Z</time>
      </trkpt>
      <trkpt lat="43.00022" lon="-0.84714">
        <ele>515.7</ele>
        <time>2021-07-11T13:30:31.626Z</time>
      </trkpt>
      <trkpt lat="43.00027" lon="-0.84609">
        <ele>499.2</ele>
        <time>2021-07-11T13:30:46.276Z</time>
      </trkpt>
      <trkpt lat="43.00034" lon="-0.84546">
        <ele>488.5</ele>
        <time>2021-07-11T13:30:55.148Z</time>
      </trkpt>
      <trkpt lat="43.00044" lon="-0.84478">
        <ele>476</ele>
        <time>2021-07-11T13:31:04.805Z</time>
      </trkpt>
      <trkpt lat="43.00045" lon="-0.84411">
        <ele>467.6</ele>
        <time>2021-07-11T13:31:14.135Z</time>
      </trkpt>
      <trkpt lat="43.00043" lon="-0.844">
        <ele>468.6</ele>
        <time>2021-07-11T13:31:34.898Z</time>
      </trkpt>
      <trkpt lat="43.00047" lon="-0.8438">
        <ele>469.8</ele>
        <time>2021-07-11T13:32:00.115Z</time>
      </trkpt>
      <trkpt lat="43.00038" lon="-0.84368">
        <ele>471.1</ele>
        <time>2021-07-11T13:32:26.136Z</time>
      </trkpt>
      <trkpt lat="43.00033" lon="-0.84361">
        <ele>471.7</ele>
        <time>2021-07-11T13:32:38.509Z</time>
      </trkpt>
      <trkpt lat="43.00022" lon="-0.84336">
        <ele>473.1</ele>
        <time>2021-07-11T13:33:10.490Z</time>
      </trkpt>
      <trkpt lat="43.0001" lon="-0.84323">
        <ele>476.4</ele>
        <time>2021-07-11T13:33:55.932Z</time>
      </trkpt>
      <trkpt lat="42.99976" lon="-0.84296">
        <ele>485.3</ele>
        <time>2021-07-11T13:35:52.632Z</time>
      </trkpt>
      <trkpt lat="42.99942" lon="-0.84289">
        <ele>487.1</ele>
        <time>2021-07-11T13:36:39.620Z</time>
      </trkpt>
      <trkpt lat="42.99913" lon="-0.84269">
        <ele>490.1</ele>
        <time>2021-07-11T13:37:40.114Z</time>
      </trkpt>
      <trkpt lat="42.99893" lon="-0.84233">
        <ele>494.1</ele>
        <time>2021-07-11T13:39:03.279Z</time>
      </trkpt>
      <trkpt lat="42.99879" lon="-0.84204">
        <ele>495.1</ele>
        <time>2021-07-11T13:39:33.855Z</time>
      </trkpt>
      <trkpt lat="42.99874" lon="-0.84192">
        <ele>494.9</ele>
        <time>2021-07-11T13:39:36.587Z</time>
      </trkpt>
      <trkpt lat="42.99869" lon="-0.84165">
        <ele>494.8</ele>
        <time>2021-07-11T13:39:51.166Z</time>
      </trkpt>
      <trkpt lat="42.9987" lon="-0.84157">
        <ele>494.6</ele>
        <time>2021-07-11T13:39:52.546Z</time>
      </trkpt>
      <trkpt lat="42.9987" lon="-0.84143">
        <ele>493.4</ele>
        <time>2021-07-11T13:39:54.495Z</time>
      </trkpt>
      <trkpt lat="42.99884" lon="-0.84109">
        <ele>496.6</ele>
        <time>2021-07-11T13:40:59.259Z</time>
      </trkpt>
      <trkpt lat="42.99907" lon="-0.84051">
        <ele>504.8</ele>
        <time>2021-07-11T13:43:22.480Z</time>
      </trkpt>
      <trkpt lat="42.99909" lon="-0.84028">
        <ele>505.1</ele>
        <time>2021-07-11T13:43:38.039Z</time>
      </trkpt>
      <trkpt lat="42.99907" lon="-0.84012">
        <ele>503.8</ele>
        <time>2021-07-11T13:43:40.299Z</time>
      </trkpt>
      <trkpt lat="42.99893" lon="-0.83974">
        <ele>498.4</ele>
        <time>2021-07-11T13:43:46.223Z</time>
      </trkpt>
      <trkpt lat="42.99891" lon="-0.83962">
        <ele>498.4</ele>
        <time>2021-07-11T13:43:53.150Z</time>
      </trkpt>
      <trkpt lat="42.99895" lon="-0.83941">
        <ele>501</ele>
        <time>2021-07-11T13:44:40.257Z</time>
      </trkpt>
      <trkpt lat="42.99917" lon="-0.83911">
        <ele>509.2</ele>
        <time>2021-07-11T13:46:12.478Z</time>
      </trkpt>
      <trkpt lat="42.99925" lon="-0.83891">
        <ele>514.9</ele>
        <time>2021-07-11T13:47:01.963Z</time>
      </trkpt>
      <trkpt lat="42.99925" lon="-0.83871">
        <ele>518.7</ele>
        <time>2021-07-11T13:47:45.378Z</time>
      </trkpt>
      <trkpt lat="42.99917" lon="-0.83861">
        <ele>518.8</ele>
        <time>2021-07-11T13:47:54.489Z</time>
      </trkpt>
      <trkpt lat="42.99899" lon="-0.83852">
        <ele>519.4</ele>
        <time>2021-07-11T13:48:15.166Z</time>
      </trkpt>
      <trkpt lat="42.99863" lon="-0.83839">
        <ele>521.9</ele>
        <time>2021-07-11T13:49:11.605Z</time>
      </trkpt>
      <trkpt lat="42.9982" lon="-0.83838">
        <ele>523</ele>
        <time>2021-07-11T13:49:54.824Z</time>
      </trkpt>
      <trkpt lat="42.99769" lon="-0.83862">
        <ele>517.7</ele>
        <time>2021-07-11T13:50:05.092Z</time>
      </trkpt>
      <trkpt lat="42.99734" lon="-0.83887">
        <ele>509.9</ele>
        <time>2021-07-11T13:50:12.609Z</time>
      </trkpt>
      <trkpt lat="42.99718" lon="-0.83885">
        <ele>510.6</ele>
        <time>2021-07-11T13:50:33.184Z</time>
      </trkpt>
      <trkpt lat="42.99701" lon="-0.83877">
        <ele>512.6</ele>
        <time>2021-07-11T13:51:13.587Z</time>
      </trkpt>
      <trkpt lat="42.99681" lon="-0.83836">
        <ele>519</ele>
        <time>2021-07-11T13:53:00.571Z</time>
      </trkpt>
      <trkpt lat="42.9959" lon="-0.83733">
        <ele>519.1</ele>
        <time>2021-07-11T13:54:32.188Z</time>
      </trkpt>
      <trkpt lat="42.99578" lon="-0.83701">
        <ele>520.6</ele>
        <time>2021-07-11T13:55:09.287Z</time>
      </trkpt>
      <trkpt lat="42.99581" lon="-0.83675">
        <ele>522.3</ele>
        <time>2021-07-11T13:55:43.870Z</time>
      </trkpt>
      <trkpt lat="42.99591" lon="-0.83653">
        <ele>527.9</ele>
        <time>2021-07-11T13:56:40.101Z</time>
      </trkpt>
      <trkpt lat="42.996" lon="-0.83593">
        <ele>537.2</ele>
        <time>2021-07-11T13:58:53.064Z</time>
      </trkpt>
      <trkpt lat="42.99588" lon="-0.83569">
        <ele>536</ele>
        <time>2021-07-11T13:58:57.084Z</time>
      </trkpt>
      <trkpt lat="42.99559" lon="-0.83539">
        <ele>532.9</ele>
        <time>2021-07-11T13:59:04.007Z</time>
      </trkpt>
      <trkpt lat="42.99489" lon="-0.83423">
        <ele>535.8</ele>
        <time>2021-07-11T14:00:55.596Z</time>
      </trkpt>
      <trkpt lat="42.99447" lon="-0.8333">
        <ele>538.6</ele>
        <time>2021-07-11T14:02:26.172Z</time>
      </trkpt>
      <trkpt lat="42.9944" lon="-0.83295">
        <ele>535.1</ele>
        <time>2021-07-11T14:02:31.224Z</time>
      </trkpt>
      <trkpt lat="42.99444" lon="-0.83279">
        <ele>537.1</ele>
        <time>2021-07-11T14:03:07.932Z</time>
      </trkpt>
      <trkpt lat="42.99467" lon="-0.8324">
        <ele>548.3</ele>
        <time>2021-07-11T14:04:56.691Z</time>
      </trkpt>
      <trkpt lat="42.99481" lon="-0.83191">
        <ele>551.9</ele>
        <time>2021-07-11T14:06:09.142Z</time>
      </trkpt>
      <trkpt lat="42.99485" lon="-0.83053">
        <ele>554</ele>
        <time>2021-07-11T14:07:45.157Z</time>
      </trkpt>
      <trkpt lat="42.99478" lon="-0.8302">
        <ele>554.7</ele>
        <time>2021-07-11T14:08:11.120Z</time>
      </trkpt>
      <trkpt lat="42.99475" lon="-0.83002">
        <ele>555.3</ele>
        <time>2021-07-11T14:08:28.642Z</time>
      </trkpt>
      <trkpt lat="42.99457" lon="-0.82951">
        <ele>557.3</ele>
        <time>2021-07-11T14:09:23.753Z</time>
      </trkpt>
      <trkpt lat="42.99449" lon="-0.82936">
        <ele>556.2</ele>
        <time>2021-07-11T14:09:26.338Z</time>
      </trkpt>
      <trkpt lat="42.99412" lon="-0.82877">
        <ele>555.4</ele>
        <time>2021-07-11T14:09:42.823Z</time>
      </trkpt>
      <trkpt lat="42.99363" lon="-0.82813">
        <ele>558.7</ele>
        <time>2021-07-11T14:11:13.232Z</time>
      </trkpt>
      <trkpt lat="42.99347" lon="-0.82786">
        <ele>556.3</ele>
        <time>2021-07-11T14:11:18.071Z</time>
      </trkpt>
      <trkpt lat="42.9934" lon="-0.8277">
        <ele>555.1</ele>
        <time>2021-07-11T14:11:20.667Z</time>
      </trkpt>
      <trkpt lat="42.99337" lon="-0.82756">
        <ele>555</ele>
        <time>2021-07-11T14:11:23.957Z</time>
      </trkpt>
      <trkpt lat="42.99337" lon="-0.82741">
        <ele>555.2</ele>
        <time>2021-07-11T14:11:34.091Z</time>
      </trkpt>
      <trkpt lat="42.99339" lon="-0.82727">
        <ele>555.6</ele>
        <time>2021-07-11T14:11:46.465Z</time>
      </trkpt>
      <trkpt lat="42.99346" lon="-0.82711">
        <ele>557.7</ele>
        <time>2021-07-11T14:12:26.940Z</time>
      </trkpt>
      <trkpt lat="42.99367" lon="-0.82673">
        <ele>564</ele>
        <time>2021-07-11T14:14:10.336Z</time>
      </trkpt>
      <trkpt lat="42.99376" lon="-0.82659">
        <ele>565.4</ele>
        <time>2021-07-11T14:14:38.352Z</time>
      </trkpt>
      <trkpt lat="42.99386" lon="-0.82652">
        <ele>567.3</ele>
        <time>2021-07-11T14:15:11.697Z</time>
      </trkpt>
      <trkpt lat="42.99397" lon="-0.82648">
        <ele>569.8</ele>
        <time>2021-07-11T14:15:45.481Z</time>
      </trkpt>
      <trkpt lat="42.99409" lon="-0.82649">
        <ele>573.7</ele>
        <time>2021-07-11T14:16:21.165Z</time>
      </trkpt>
      <trkpt lat="42.99424" lon="-0.82653">
        <ele>578.7</ele>
        <time>2021-07-11T14:17:06.525Z</time>
      </trkpt>
      <trkpt lat="42.99447" lon="-0.82655">
        <ele>583.8</ele>
        <time>2021-07-11T14:18:14.929Z</time>
      </trkpt>
      <trkpt lat="42.99463" lon="-0.82653">
        <ele>586.4</ele>
        <time>2021-07-11T14:19:02.617Z</time>
      </trkpt>
      <trkpt lat="42.99502" lon="-0.8263">
        <ele>587.2</ele>
        <time>2021-07-11T14:19:42.115Z</time>
      </trkpt>
      <trkpt lat="42.99515" lon="-0.82617">
        <ele>587.6</ele>
        <time>2021-07-11T14:19:58.158Z</time>
      </trkpt>
      <trkpt lat="42.99551" lon="-0.82572">
        <ele>588.6</ele>
        <time>2021-07-11T14:20:44.371Z</time>
      </trkpt>
      <trkpt lat="42.99563" lon="-0.8255">
        <ele>589.4</ele>
        <time>2021-07-11T14:21:08.698Z</time>
      </trkpt>
      <trkpt lat="42.99583" lon="-0.82507">
        <ele>586.3</ele>
        <time>2021-07-11T14:21:15.794Z</time>
      </trkpt>
      <trkpt lat="42.99593" lon="-0.82497">
        <ele>588.3</ele>
        <time>2021-07-11T14:21:52.566Z</time>
      </trkpt>
      <trkpt lat="42.99632" lon="-0.82468">
        <ele>596.4</ele>
        <time>2021-07-11T14:24:04.334Z</time>
      </trkpt>
      <trkpt lat="42.99686" lon="-0.82433">
        <ele>600.5</ele>
        <time>2021-07-11T14:25:35.908Z</time>
      </trkpt>
      <trkpt lat="42.9969" lon="-0.82429">
        <ele>600</ele>
        <time>2021-07-11T14:25:36.851Z</time>
      </trkpt>
      <trkpt lat="42.99699" lon="-0.82418">
        <ele>598.1</ele>
        <time>2021-07-11T14:25:39.149Z</time>
      </trkpt>
      <trkpt lat="42.99704" lon="-0.82411">
        <ele>598.5</ele>
        <time>2021-07-11T14:25:49.165Z</time>
      </trkpt>
      <trkpt lat="42.99709" lon="-0.82403">
        <ele>599.3</ele>
        <time>2021-07-11T14:26:05.182Z</time>
      </trkpt>
      <trkpt lat="42.99721" lon="-0.82376">
        <ele>600.5</ele>
        <time>2021-07-11T14:26:36.672Z</time>
      </trkpt>
      <trkpt lat="42.99724" lon="-0.82365">
        <ele>600.5</ele>
        <time>2021-07-11T14:26:43.280Z</time>
      </trkpt>
      <trkpt lat="42.99723" lon="-0.82357">
        <ele>600.1</ele>
        <time>2021-07-11T14:26:44.410Z</time>
      </trkpt>
      <trkpt lat="42.99719" lon="-0.8235">
        <ele>599.3</ele>
        <time>2021-07-11T14:26:45.646Z</time>
      </trkpt>
      <trkpt lat="42.99714" lon="-0.82345">
        <ele>598.5</ele>
        <time>2021-07-11T14:26:46.826Z</time>
      </trkpt>
      <trkpt lat="42.99706" lon="-0.82337">
        <ele>597.3</ele>
        <time>2021-07-11T14:26:48.713Z</time>
      </trkpt>
      <trkpt lat="42.99695" lon="-0.82327">
        <ele>597</ele>
        <time>2021-07-11T14:26:52.167Z</time>
      </trkpt>
      <trkpt lat="42.99686" lon="-0.82324">
        <ele>596.4</ele>
        <time>2021-07-11T14:26:53.806Z</time>
      </trkpt>
      <trkpt lat="42.99678" lon="-0.8232">
        <ele>596</ele>
        <time>2021-07-11T14:26:55.553Z</time>
      </trkpt>
      <trkpt lat="42.99673" lon="-0.82316">
        <ele>595.9</ele>
        <time>2021-07-11T14:26:57.168Z</time>
      </trkpt>
      <trkpt lat="42.99668" lon="-0.82298">
        <ele>597.4</ele>
        <time>2021-07-11T14:27:27.259Z</time>
      </trkpt>
      <trkpt lat="42.99668" lon="-0.82249">
        <ele>603.3</ele>
        <time>2021-07-11T14:29:13.630Z</time>
      </trkpt>
      <trkpt lat="42.99664" lon="-0.82228">
        <ele>603.8</ele>
        <time>2021-07-11T14:29:30.797Z</time>
      </trkpt>
      <trkpt lat="42.99656" lon="-0.82213">
        <ele>603.3</ele>
        <time>2021-07-11T14:29:33.857Z</time>
      </trkpt>
      <trkpt lat="42.99652" lon="-0.82208">
        <ele>603</ele>
        <time>2021-07-11T14:29:34.891Z</time>
      </trkpt>
      <trkpt lat="42.99613" lon="-0.82178">
        <ele>598.7</ele>
        <time>2021-07-11T14:29:43.410Z</time>
      </trkpt>
      <trkpt lat="42.99602" lon="-0.82161">
        <ele>598.5</ele>
        <time>2021-07-11T14:29:48.351Z</time>
      </trkpt>
      <trkpt lat="42.99599" lon="-0.8215">
        <ele>599.1</ele>
        <time>2021-07-11T14:30:01.634Z</time>
      </trkpt>
      <trkpt lat="42.99596" lon="-0.82137">
        <ele>599.9</ele>
        <time>2021-07-11T14:30:18.364Z</time>
      </trkpt>
      <trkpt lat="42.99593" lon="-0.82054">
        <ele>604.8</ele>
        <time>2021-07-11T14:32:00.669Z</time>
      </trkpt>
      <trkpt lat="42.99593" lon="-0.82041">
        <ele>604.9</ele>
        <time>2021-07-11T14:32:08.766Z</time>
      </trkpt>
      <trkpt lat="42.99599" lon="-0.8202">
        <ele>606.6</ele>
        <time>2021-07-11T14:32:42.790Z</time>
      </trkpt>
      <trkpt lat="42.99602" lon="-0.82012">
        <ele>607.6</ele>
        <time>2021-07-11T14:33:02.306Z</time>
      </trkpt>
      <trkpt lat="42.99617" lon="-0.81989">
        <ele>612.7</ele>
        <time>2021-07-11T14:34:09.203Z</time>
      </trkpt>
      <trkpt lat="42.99631" lon="-0.81966">
        <ele>617.8</ele>
        <time>2021-07-11T14:35:14.162Z</time>
      </trkpt>
      <trkpt lat="42.99636" lon="-0.81955">
        <ele>619.8</ele>
        <time>2021-07-11T14:35:42.277Z</time>
      </trkpt>
      <trkpt lat="42.99638" lon="-0.81931">
        <ele>621.2</ele>
        <time>2021-07-11T14:36:11.683Z</time>
      </trkpt>
      <trkpt lat="42.99637" lon="-0.81909">
        <ele>621.9</ele>
        <time>2021-07-11T14:36:32.281Z</time>
      </trkpt>
      <trkpt lat="42.99636" lon="-0.8189">
        <ele>623</ele>
        <time>2021-07-11T14:36:55.416Z</time>
      </trkpt>
      <trkpt lat="42.99633" lon="-0.81851">
        <ele>624.6</ele>
        <time>2021-07-11T14:37:35.528Z</time>
      </trkpt>
      <trkpt lat="42.99629" lon="-0.81805">
        <ele>627.5</ele>
        <time>2021-07-11T14:38:34.982Z</time>
      </trkpt>
      <trkpt lat="42.99623" lon="-0.81757">
        <ele>630.6</ele>
        <time>2021-07-11T14:39:38.261Z</time>
      </trkpt>
      <trkpt lat="42.99618" lon="-0.81731">
        <ele>631.3</ele>
        <time>2021-07-11T14:40:00.713Z</time>
      </trkpt>
      <trkpt lat="42.99605" lon="-0.81698">
        <ele>629.5</ele>
        <time>2021-07-11T14:40:05.531Z</time>
      </trkpt>
      <trkpt lat="42.99589" lon="-0.81677">
        <ele>625.7</ele>
        <time>2021-07-11T14:40:09.753Z</time>
      </trkpt>
      <trkpt lat="42.99578" lon="-0.81668">
        <ele>624.8</ele>
        <time>2021-07-11T14:40:12.194Z</time>
      </trkpt>
      <trkpt lat="42.99568" lon="-0.81655">
        <ele>626.3</ele>
        <time>2021-07-11T14:40:42.366Z</time>
      </trkpt>
      <trkpt lat="42.99558" lon="-0.81632">
        <ele>629</ele>
        <time>2021-07-11T14:41:40.452Z</time>
      </trkpt>
      <trkpt lat="42.99556" lon="-0.81622">
        <ele>630.2</ele>
        <time>2021-07-11T14:42:02.958Z</time>
      </trkpt>
      <trkpt lat="42.99556" lon="-0.81552">
        <ele>636</ele>
        <time>2021-07-11T14:44:00.646Z</time>
      </trkpt>
      <trkpt lat="42.99549" lon="-0.81504">
        <ele>638</ele>
        <time>2021-07-11T14:44:50.740Z</time>
      </trkpt>
      <trkpt lat="42.9952" lon="-0.81331">
        <ele>635.9</ele>
        <time>2021-07-11T14:45:27.414Z</time>
      </trkpt>
      <trkpt lat="42.9952" lon="-0.81308">
        <ele>635.3</ele>
        <time>2021-07-11T14:45:31.249Z</time>
      </trkpt>
      <trkpt lat="42.99523" lon="-0.81286">
        <ele>635.1</ele>
        <time>2021-07-11T14:45:36.110Z</time>
      </trkpt>
      <trkpt lat="42.99531" lon="-0.81251">
        <ele>635.5</ele>
        <time>2021-07-11T14:46:00.014Z</time>
      </trkpt>
      <trkpt lat="42.99538" lon="-0.81236">
        <ele>635.5</ele>
        <time>2021-07-11T14:46:10.028Z</time>
      </trkpt>
      <trkpt lat="42.99545" lon="-0.81225">
        <ele>635.9</ele>
        <time>2021-07-11T14:46:22.529Z</time>
      </trkpt>
      <trkpt lat="42.99543" lon="-0.81222">
        <ele>635.4</ele>
        <time>2021-07-11T14:46:23.095Z</time>
      </trkpt>
      <trkpt lat="42.99541" lon="-0.81213">
        <ele>634.4</ele>
        <time>2021-07-11T14:46:24.404Z</time>
      </trkpt>
      <trkpt lat="42.99562" lon="-0.81131">
        <ele>633</ele>
        <time>2021-07-11T14:46:41.153Z</time>
      </trkpt>
      <trkpt lat="42.99563" lon="-0.81128">
        <ele>633</ele>
        <time>2021-07-11T14:46:43.008Z</time>
      </trkpt>
      <trkpt lat="42.9957" lon="-0.81104">
        <ele>632.9</ele>
        <time>2021-07-11T14:46:56.460Z</time>
      </trkpt>
      <trkpt lat="42.99578" lon="-0.81077">
        <ele>633.5</ele>
        <time>2021-07-11T14:47:18.555Z</time>
      </trkpt>
      <trkpt lat="42.99579" lon="-0.81066">
        <ele>633.6</ele>
        <time>2021-07-11T14:47:25.588Z</time>
      </trkpt>
      <trkpt lat="42.9958" lon="-0.81051">
        <ele>633.7</ele>
        <time>2021-07-11T14:47:34.834Z</time>
      </trkpt>
      <trkpt lat="42.9958" lon="-0.81047">
        <ele>633.7</ele>
        <time>2021-07-11T14:47:37.085Z</time>
      </trkpt>
      <trkpt lat="42.99579" lon="-0.81043">
        <ele>633.3</ele>
        <time>2021-07-11T14:47:37.674Z</time>
      </trkpt>
      <trkpt lat="42.99579" lon="-0.81027">
        <ele>633.1</ele>
        <time>2021-07-11T14:47:40.944Z</time>
      </trkpt>
      <trkpt lat="42.99577" lon="-0.81012">
        <ele>632.4</ele>
        <time>2021-07-11T14:47:42.948Z</time>
      </trkpt>
      <trkpt lat="42.99576" lon="-0.81008">
        <ele>632.1</ele>
        <time>2021-07-11T14:47:43.536Z</time>
      </trkpt>
    </trkseg>
  </trk>
</gpx>